TAM8086 SBGR-KLAX
Flight info
| Callsign | TAM8086 |
|---|---|
| Flight time | 11h 36m |
| Altitude | 34000 |
| Route | GERTU UL201 PANAB DCT RODAD DCT ETETO DCT ISOLU DCT AKTOR UL655 ASOKU UT152 PPE J93 ASUTA DCT AMMOR |
| Aircraft | B77W/H-SDE1E2E3FGHIJ2J3J4J5M1RWXYZ/LB1D1 |
Departure
| Time | 2026-04-20 04:07 |
|---|---|
| Airport | São Paulo/Guarulhos–Governor André Franco Montoro International Airport (SBGR) |
Arrival
| Time | 2026-04-20 15:43 |
|---|---|
| Airport | Los Angeles International Airport (KLAX) |
| Time | Latitude | Longitude | Altitude | Speed | Heading |
|---|---|---|---|---|---|
| 2026-04-20 03:53 | -23.42692 | -46.47457 | 2466 ft | 0 kts | 74° |
| 2026-04-20 03:57 | -23.42692 | -46.47460 | 2466 ft | 2 kts | 74° |
| 2026-04-20 03:57 | -23.42699 | -46.47487 | 2468 ft | 4 kts | 75° |
| 2026-04-20 03:57 | -23.42705 | -46.47511 | 2466 ft | 4 kts | 91° |
| 2026-04-20 03:58 | -23.42696 | -46.47532 | 2466 ft | 4 kts | 158° |
| 2026-04-20 03:58 | -23.42673 | -46.47539 | 2466 ft | 2 kts | 163° |
| 2026-04-20 03:58 | -23.42672 | -46.47539 | 2466 ft | 0 kts | 163° |
| 2026-04-20 04:02 | -23.42711 | -46.47526 | 2469 ft | 9 kts | 163° |
| 2026-04-20 04:02 | -23.42753 | -46.47517 | 2469 ft | 9 kts | 177° |
| 2026-04-20 04:02 | -23.42819 | -46.47511 | 2474 ft | 9 kts | 166° |
| 2026-04-20 04:02 | -23.42881 | -46.47489 | 2473 ft | 9 kts | 165° |
| 2026-04-20 04:03 | -23.42941 | -46.47505 | 2472 ft | 10 kts | 227° |
| 2026-04-20 04:03 | -23.42970 | -46.47589 | 2471 ft | 15 kts | 253° |
| 2026-04-20 04:03 | -23.43005 | -46.47714 | 2469 ft | 20 kts | 253° |
| 2026-04-20 04:03 | -23.43047 | -46.47876 | 2468 ft | 24 kts | 253° |
| 2026-04-20 04:04 | -23.43094 | -46.48050 | 2470 ft | 24 kts | 253° |
| 2026-04-20 04:04 | -23.43142 | -46.48224 | 2469 ft | 24 kts | 253° |
| 2026-04-20 04:04 | -23.43195 | -46.48374 | 2469 ft | 16 kts | 221° |
| 2026-04-20 04:04 | -23.43297 | -46.48368 | 2469 ft | 15 kts | 164° |
| 2026-04-20 04:05 | -23.43396 | -46.48327 | 2468 ft | 15 kts | 143° |
| 2026-04-20 04:05 | -23.43413 | -46.48266 | 2471 ft | 0 kts | 70° |
| 2026-04-20 04:05 | -23.43383 | -46.48164 | 2471 ft | 45 kts | 73° |
| 2026-04-20 04:06 | -23.43228 | -46.47591 | 2468 ft | 114 kts | 73° |
| 2026-04-20 04:06 | -23.42944 | -46.46540 | 2472 ft | 173 kts | 73° |
| 2026-04-20 04:06 | -23.42563 | -46.45123 | 2501 ft | 210 kts | 74° |
| 2026-04-20 04:06 | -23.42151 | -46.43590 | 3004 ft | 213 kts | 74° |
| 2026-04-20 04:07 | -23.41446 | -46.42190 | 3528 ft | 216 kts | 39° |
| 2026-04-20 04:07 | -23.40128 | -46.41396 | 4024 ft | 219 kts | 28° |
| 2026-04-20 04:07 | -23.38730 | -46.40576 | 4243 ft | 239 kts | 32° |
| 2026-04-20 04:07 | -23.37237 | -46.39618 | 4489 ft | 257 kts | 33° |
| 2026-04-20 04:08 | -23.35662 | -46.38589 | 4874 ft | 271 kts | 33° |
| 2026-04-20 04:08 | -23.34023 | -46.37500 | 5350 ft | 281 kts | 34° |
| 2026-04-20 04:08 | -23.32339 | -46.36366 | 5920 ft | 288 kts | 34° |
| 2026-04-20 04:08 | -23.30626 | -46.35202 | 6574 ft | 292 kts | 34° |
| 2026-04-20 04:09 | -23.28891 | -46.34016 | 7171 ft | 296 kts | 34° |
| 2026-04-20 04:09 | -23.27142 | -46.32819 | 7789 ft | 299 kts | 34° |
| 2026-04-20 04:09 | -23.25376 | -46.31609 | 8414 ft | 301 kts | 34° |
| 2026-04-20 04:09 | -23.23609 | -46.30364 | 9058 ft | 304 kts | 35° |
| 2026-04-20 04:10 | -23.21873 | -46.29089 | 9690 ft | 307 kts | 35° |
| 2026-04-20 04:10 | -23.20079 | -46.27763 | 10243 ft | 310 kts | 35° |
| 2026-04-20 04:10 | -23.18275 | -46.26432 | 10540 ft | 326 kts | 35° |
| 2026-04-20 04:10 | -23.16332 | -46.25004 | 10689 ft | 347 kts | 35° |
| 2026-04-20 04:11 | -23.14272 | -46.23496 | 10853 ft | 367 kts | 34° |
| 2026-04-20 04:11 | -23.11953 | -46.22227 | 10922 ft | 385 kts | 14° |
| 2026-04-20 04:11 | -23.09259 | -46.22065 | 11258 ft | 395 kts | 350° |
| 2026-04-20 04:11 | -23.06628 | -46.22949 | 11697 ft | 398 kts | 336° |
| 2026-04-20 04:12 | -23.04044 | -46.24103 | 12099 ft | 403 kts | 336° |
| 2026-04-20 04:12 | -23.01423 | -46.25240 | 12094 ft | 406 kts | 337° |
| 2026-04-20 04:12 | -22.98800 | -46.26354 | 12106 ft | 404 kts | 337° |
| 2026-04-20 04:12 | -22.96176 | -46.27458 | 12105 ft | 404 kts | 338° |
| 2026-04-20 04:13 | -22.93564 | -46.28551 | 12098 ft | 402 kts | 338° |
| 2026-04-20 04:13 | -22.91071 | -46.29842 | 12087 ft | 396 kts | 322° |
| 2026-04-20 04:13 | -22.89116 | -46.31937 | 12110 ft | 398 kts | 302° |
| 2026-04-20 04:13 | -22.87809 | -46.34557 | 12086 ft | 393 kts | 292° |
| 2026-04-20 04:14 | -22.86664 | -46.37259 | 12111 ft | 397 kts | 292° |
| 2026-04-20 04:14 | -22.85483 | -46.39977 | 12107 ft | 399 kts | 293° |
| 2026-04-20 04:14 | -22.84290 | -46.42686 | 12097 ft | 396 kts | 293° |
| 2026-04-20 04:14 | -22.83100 | -46.45368 | 12077 ft | 393 kts | 293° |
| 2026-04-20 04:15 | -22.81912 | -46.48036 | 12085 ft | 392 kts | 294° |
| 2026-04-20 04:15 | -22.80723 | -46.50698 | 12083 ft | 393 kts | 294° |
| 2026-04-20 04:15 | -22.79543 | -46.53336 | 12080 ft | 394 kts | 294° |
| 2026-04-20 04:15 | -22.78348 | -46.56010 | 12083 ft | 394 kts | 294° |
| 2026-04-20 04:16 | -22.77151 | -46.58687 | 12078 ft | 395 kts | 294° |
| 2026-04-20 04:16 | -22.75952 | -46.61366 | 12078 ft | 396 kts | 294° |
| 2026-04-20 04:16 | -22.74748 | -46.64054 | 12077 ft | 396 kts | 294° |
| 2026-04-20 04:16 | -22.73546 | -46.66736 | 12067 ft | 396 kts | 294° |
| 2026-04-20 04:17 | -22.72342 | -46.69421 | 12068 ft | 395 kts | 294° |
| 2026-04-20 04:17 | -22.71141 | -46.72099 | 12066 ft | 395 kts | 294° |
| 2026-04-20 04:17 | -22.69940 | -46.74777 | 12063 ft | 395 kts | 294° |
| 2026-04-20 04:17 | -22.68739 | -46.77452 | 12064 ft | 394 kts | 294° |
| 2026-04-20 04:18 | -22.67539 | -46.80123 | 12096 ft | 396 kts | 294° |
| 2026-04-20 04:18 | -22.66339 | -46.82795 | 12648 ft | 401 kts | 294° |
| 2026-04-20 04:18 | -22.65116 | -46.85516 | 13434 ft | 402 kts | 294° |
| 2026-04-20 04:18 | -22.63885 | -46.88253 | 14121 ft | 405 kts | 294° |
| 2026-04-20 04:19 | -22.62648 | -46.91003 | 14707 ft | 409 kts | 294° |
| 2026-04-20 04:19 | -22.61394 | -46.93786 | 15312 ft | 412 kts | 294° |
| 2026-04-20 04:19 | -22.60135 | -46.96586 | 15913 ft | 416 kts | 294° |
| 2026-04-20 04:19 | -22.58865 | -46.99409 | 16503 ft | 419 kts | 294° |
| 2026-04-20 04:20 | -22.57585 | -47.02256 | 17088 ft | 422 kts | 294° |
| 2026-04-20 04:20 | -22.56295 | -47.05129 | 17676 ft | 426 kts | 294° |
| 2026-04-20 04:20 | -22.54995 | -47.08025 | 18248 ft | 430 kts | 294° |
| 2026-04-20 04:20 | -22.53686 | -47.10943 | 18742 ft | 433 kts | 294° |
| 2026-04-20 04:21 | -22.52365 | -47.13889 | 19279 ft | 436 kts | 294° |
| 2026-04-20 04:21 | -22.51042 | -47.16842 | 19825 ft | 437 kts | 293° |
| 2026-04-20 04:21 | -22.49727 | -47.19781 | 20358 ft | 439 kts | 293° |
| 2026-04-20 04:21 | -22.48393 | -47.22761 | 20891 ft | 442 kts | 293° |
| 2026-04-20 04:22 | -22.47047 | -47.25768 | 21409 ft | 445 kts | 293° |
| 2026-04-20 04:22 | -22.45696 | -47.28789 | 21940 ft | 447 kts | 293° |
| 2026-04-20 04:22 | -22.44340 | -47.31821 | 22465 ft | 449 kts | 293° |
| 2026-04-20 04:22 | -22.42977 | -47.34872 | 22993 ft | 452 kts | 293° |
| 2026-04-20 04:23 | -22.41607 | -47.37939 | 23487 ft | 454 kts | 293° |
| 2026-04-20 04:23 | -22.40227 | -47.41031 | 23922 ft | 457 kts | 293° |
| 2026-04-20 04:23 | -22.38847 | -47.44125 | 24350 ft | 458 kts | 293° |
| 2026-04-20 04:23 | -22.37467 | -47.47219 | 24773 ft | 460 kts | 292° |
| 2026-04-20 04:24 | -22.36078 | -47.50335 | 25204 ft | 462 kts | 292° |
| 2026-04-20 04:24 | -22.34700 | -47.53429 | 25608 ft | 464 kts | 292° |
| 2026-04-20 04:24 | -22.33179 | -47.56572 | 26008 ft | 469 kts | 297° |
| 2026-04-20 04:24 | -22.31345 | -47.59509 | 26390 ft | 475 kts | 304° |
| 2026-04-20 04:25 | -22.29259 | -47.62290 | 26795 ft | 477 kts | 306° |
| 2026-04-20 04:25 | -22.27143 | -47.65064 | 27149 ft | 480 kts | 306° |
| 2026-04-20 04:25 | -22.25015 | -47.67860 | 27518 ft | 483 kts | 305° |
| 2026-04-20 04:25 | -22.22889 | -47.70670 | 27897 ft | 484 kts | 305° |
| 2026-04-20 04:26 | -22.20791 | -47.73457 | 28285 ft | 485 kts | 304° |
| 2026-04-20 04:26 | -22.18666 | -47.76292 | 28637 ft | 487 kts | 304° |
| 2026-04-20 04:26 | -22.16532 | -47.79148 | 28937 ft | 490 kts | 304° |
| 2026-04-20 04:26 | -22.14390 | -47.82014 | 29271 ft | 491 kts | 304° |
| 2026-04-20 04:27 | -22.12246 | -47.84879 | 29714 ft | 490 kts | 304° |
| 2026-04-20 04:27 | -22.10110 | -47.87731 | 30223 ft | 487 kts | 303° |
| 2026-04-20 04:27 | -22.07983 | -47.90569 | 30616 ft | 485 kts | 303° |
| 2026-04-20 04:27 | -22.05864 | -47.93394 | 31004 ft | 484 kts | 303° |
| 2026-04-20 04:28 | -22.03750 | -47.96213 | 31365 ft | 483 kts | 303° |
| 2026-04-20 04:28 | -22.01637 | -47.99028 | 31697 ft | 482 kts | 303° |
| 2026-04-20 04:28 | -21.99521 | -48.01848 | 31948 ft | 484 kts | 303° |
| 2026-04-20 04:28 | -21.97394 | -48.04683 | 31970 ft | 487 kts | 303° |
| 2026-04-20 04:29 | -21.93141 | -48.10338 | 32000 ft | 483 kts | 303° |
| 2026-04-20 04:29 | -21.88954 | -48.15901 | 32010 ft | 479 kts | 303° |
| 2026-04-20 04:30 | -21.84575 | -48.21349 | 32007 ft | 483 kts | 308° |
| 2026-04-20 04:30 | -21.79843 | -48.26519 | 32005 ft | 485 kts | 309° |
| 2026-04-20 04:31 | -21.75107 | -48.31641 | 32009 ft | 486 kts | 309° |
| 2026-04-20 04:31 | -21.70366 | -48.36828 | 31995 ft | 486 kts | 309° |
| 2026-04-20 04:32 | -21.65637 | -48.42031 | 32001 ft | 486 kts | 308° |
| 2026-04-20 04:32 | -21.60913 | -48.47231 | 31998 ft | 486 kts | 309° |
| 2026-04-20 04:33 | -21.56181 | -48.52428 | 31996 ft | 486 kts | 309° |
| 2026-04-20 04:33 | -21.51456 | -48.57611 | 31991 ft | 485 kts | 309° |
| 2026-04-20 04:34 | -21.46739 | -48.62780 | 31990 ft | 484 kts | 309° |
| 2026-04-20 04:34 | -21.42056 | -48.67908 | 31983 ft | 483 kts | 309° |
| 2026-04-20 04:35 | -21.37352 | -48.73054 | 31987 ft | 482 kts | 309° |
| 2026-04-20 04:35 | -21.32657 | -48.78185 | 31987 ft | 481 kts | 308° |
| 2026-04-20 04:36 | -21.25623 | -48.85866 | 31983 ft | 481 kts | 308° |
| 2026-04-20 04:37 | -21.20930 | -48.90983 | 31990 ft | 480 kts | 308° |
| 2026-04-20 04:37 | -21.16271 | -48.96059 | 31972 ft | 481 kts | 308° |
| 2026-04-20 04:38 | -21.11582 | -49.01166 | 31989 ft | 480 kts | 308° |
| 2026-04-20 04:38 | -21.06899 | -49.06264 | 31990 ft | 479 kts | 308° |
| 2026-04-20 04:39 | -21.02223 | -49.11351 | 31983 ft | 479 kts | 308° |
| 2026-04-20 04:39 | -20.97547 | -49.16432 | 31998 ft | 479 kts | 308° |
| 2026-04-20 04:40 | -20.92866 | -49.21513 | 32001 ft | 478 kts | 308° |
| 2026-04-20 04:40 | -20.88198 | -49.26577 | 32015 ft | 478 kts | 308° |
| 2026-04-20 04:41 | -20.83550 | -49.31614 | 32016 ft | 478 kts | 308° |
| 2026-04-20 04:41 | -20.78863 | -49.36688 | 32025 ft | 479 kts | 308° |
| 2026-04-20 04:42 | -20.74178 | -49.41755 | 32019 ft | 479 kts | 308° |
| 2026-04-20 04:42 | -20.69493 | -49.46816 | 32014 ft | 478 kts | 308° |
| 2026-04-20 04:43 | -20.64840 | -49.51840 | 32005 ft | 478 kts | 308° |
| 2026-04-20 04:43 | -20.60158 | -49.56889 | 31994 ft | 478 kts | 308° |
| 2026-04-20 04:44 | -20.55467 | -49.61943 | 31980 ft | 478 kts | 308° |
| 2026-04-20 04:44 | -20.50794 | -49.66974 | 31975 ft | 478 kts | 308° |
| 2026-04-20 04:45 | -20.46111 | -49.72011 | 31974 ft | 477 kts | 308° |
| 2026-04-20 04:45 | -20.41452 | -49.77017 | 31973 ft | 477 kts | 308° |
| 2026-04-20 04:46 | -20.36767 | -49.82047 | 31972 ft | 477 kts | 308° |
| 2026-04-20 04:46 | -20.32090 | -49.87065 | 31968 ft | 477 kts | 308° |
| 2026-04-20 04:47 | -20.27406 | -49.92084 | 31968 ft | 478 kts | 308° |
| 2026-04-20 04:47 | -20.22741 | -49.97078 | 31974 ft | 478 kts | 308° |
| 2026-04-20 04:48 | -20.18050 | -50.02097 | 31946 ft | 478 kts | 308° |
| 2026-04-20 04:48 | -20.13362 | -50.07107 | 31967 ft | 478 kts | 308° |
| 2026-04-20 04:49 | -20.09460 | -50.11274 | 31955 ft | 478 kts | 308° |
| 2026-04-20 04:49 | -20.04764 | -50.16286 | 31967 ft | 478 kts | 308° |
| 2026-04-20 04:50 | -20.00062 | -50.21299 | 31964 ft | 478 kts | 308° |
| 2026-04-20 04:50 | -19.95357 | -50.26310 | 31962 ft | 479 kts | 308° |
| 2026-04-20 04:51 | -19.90648 | -50.31320 | 31967 ft | 479 kts | 308° |
| 2026-04-20 04:51 | -19.85944 | -50.36324 | 31960 ft | 479 kts | 308° |
| 2026-04-20 04:52 | -19.81233 | -50.41330 | 31952 ft | 478 kts | 308° |
| 2026-04-20 04:52 | -19.76549 | -50.46304 | 31970 ft | 479 kts | 308° |
| 2026-04-20 04:53 | -19.71825 | -50.51319 | 31965 ft | 481 kts | 308° |
| 2026-04-20 04:53 | -19.67086 | -50.56342 | 31967 ft | 482 kts | 308° |
| 2026-04-20 04:54 | -19.62605 | -50.61580 | 31966 ft | 478 kts | 304° |
| 2026-04-20 04:54 | -19.58286 | -50.66952 | 31945 ft | 478 kts | 304° |
| 2026-04-20 04:55 | -19.53965 | -50.72320 | 31952 ft | 479 kts | 304° |
| 2026-04-20 04:55 | -19.49624 | -50.77683 | 31946 ft | 479 kts | 304° |
| 2026-04-20 04:56 | -19.45271 | -50.83044 | 31954 ft | 479 kts | 304° |
| 2026-04-20 04:56 | -19.40941 | -50.88370 | 31944 ft | 479 kts | 304° |
| 2026-04-20 04:57 | -19.36592 | -50.93717 | 31944 ft | 479 kts | 304° |
| 2026-04-20 04:57 | -19.32244 | -50.99057 | 31954 ft | 479 kts | 304° |
| 2026-04-20 04:58 | -19.27892 | -51.04399 | 31949 ft | 479 kts | 304° |
| 2026-04-20 04:58 | -19.23556 | -51.09716 | 31952 ft | 479 kts | 304° |
| 2026-04-20 04:59 | -19.19195 | -51.15058 | 31953 ft | 479 kts | 304° |
| 2026-04-20 04:59 | -19.14833 | -51.20398 | 31950 ft | 479 kts | 305° |
| 2026-04-20 05:00 | -19.10465 | -51.25740 | 31955 ft | 480 kts | 305° |
| 2026-04-20 05:00 | -19.06086 | -51.31090 | 31956 ft | 480 kts | 305° |
| 2026-04-20 05:01 | -19.01713 | -51.36430 | 31958 ft | 481 kts | 305° |
| 2026-04-20 05:01 | -18.97330 | -51.41775 | 31950 ft | 481 kts | 305° |
| 2026-04-20 05:02 | -18.92945 | -51.47119 | 31951 ft | 482 kts | 305° |
| 2026-04-20 05:02 | -18.88578 | -51.52437 | 31958 ft | 482 kts | 305° |
| 2026-04-20 05:03 | -18.84172 | -51.57796 | 31956 ft | 482 kts | 305° |
| 2026-04-20 05:03 | -18.79773 | -51.63143 | 31969 ft | 482 kts | 305° |
| 2026-04-20 05:04 | -18.75373 | -51.68487 | 31953 ft | 482 kts | 305° |
| 2026-04-20 05:04 | -18.70971 | -51.73828 | 31964 ft | 482 kts | 306° |
| 2026-04-20 05:05 | -18.66563 | -51.79171 | 31963 ft | 483 kts | 306° |
| 2026-04-20 05:05 | -18.62149 | -51.84518 | 31968 ft | 483 kts | 306° |
| 2026-04-20 05:06 | -18.57760 | -51.89829 | 31973 ft | 483 kts | 306° |
| 2026-04-20 05:06 | -18.53342 | -51.95172 | 31967 ft | 483 kts | 306° |
| 2026-04-20 05:07 | -18.48916 | -52.00519 | 31981 ft | 483 kts | 306° |
| 2026-04-20 05:07 | -18.44494 | -52.05858 | 31975 ft | 484 kts | 306° |
| 2026-04-20 05:08 | -18.40092 | -52.11168 | 31984 ft | 484 kts | 306° |
| 2026-04-20 05:08 | -18.35661 | -52.16506 | 31980 ft | 484 kts | 306° |
| 2026-04-20 05:09 | -18.31225 | -52.21848 | 31975 ft | 484 kts | 306° |
| 2026-04-20 05:09 | -18.26789 | -52.27184 | 31979 ft | 484 kts | 306° |
| 2026-04-20 05:10 | -18.22345 | -52.32527 | 31979 ft | 484 kts | 306° |
| 2026-04-20 05:10 | -18.17899 | -52.37867 | 31981 ft | 484 kts | 306° |
| 2026-04-20 05:11 | -18.13489 | -52.43159 | 31977 ft | 485 kts | 306° |
| 2026-04-20 05:11 | -18.09033 | -52.48501 | 31977 ft | 486 kts | 306° |
| 2026-04-20 05:12 | -18.04575 | -52.53843 | 31986 ft | 486 kts | 306° |
| 2026-04-20 05:12 | -18.00106 | -52.59192 | 31981 ft | 487 kts | 306° |
| 2026-04-20 05:13 | -17.95632 | -52.64543 | 31977 ft | 487 kts | 306° |
| 2026-04-20 05:13 | -17.91155 | -52.69892 | 31978 ft | 487 kts | 306° |
| 2026-04-20 05:14 | -17.86701 | -52.75211 | 31982 ft | 487 kts | 306° |
| 2026-04-20 05:14 | -17.82224 | -52.80551 | 31984 ft | 487 kts | 307° |
| 2026-04-20 05:15 | -17.77751 | -52.85884 | 31979 ft | 486 kts | 307° |
| 2026-04-20 05:15 | -17.73274 | -52.91216 | 31979 ft | 486 kts | 307° |
| 2026-04-20 05:16 | -17.68809 | -52.96530 | 31975 ft | 486 kts | 307° |
| 2026-04-20 05:16 | -17.64333 | -53.01853 | 31978 ft | 486 kts | 307° |
| 2026-04-20 05:17 | -17.59885 | -53.07139 | 31981 ft | 487 kts | 307° |
| 2026-04-20 05:17 | -17.55403 | -53.12459 | 31983 ft | 487 kts | 307° |
| 2026-04-20 05:18 | -17.50913 | -53.17786 | 31977 ft | 487 kts | 307° |
| 2026-04-20 05:18 | -17.46415 | -53.23117 | 31973 ft | 488 kts | 307° |
| 2026-04-20 05:19 | -17.41922 | -53.28438 | 31990 ft | 488 kts | 307° |
| 2026-04-20 05:19 | -17.37421 | -53.33765 | 31974 ft | 488 kts | 307° |
| 2026-04-20 05:20 | -17.32915 | -53.39093 | 31969 ft | 488 kts | 307° |
| 2026-04-20 05:20 | -17.28417 | -53.44408 | 31974 ft | 488 kts | 307° |
| 2026-04-20 05:21 | -17.23906 | -53.49734 | 31961 ft | 488 kts | 307° |
| 2026-04-20 05:21 | -17.19403 | -53.55046 | 31978 ft | 489 kts | 307° |
| 2026-04-20 05:22 | -17.14915 | -53.60337 | 31974 ft | 489 kts | 307° |
| 2026-04-20 05:22 | -17.10393 | -53.65664 | 31978 ft | 489 kts | 307° |
| 2026-04-20 05:23 | -17.05926 | -53.71025 | 31975 ft | 489 kts | 306° |
| 2026-04-20 05:23 | -17.01525 | -53.76454 | 31970 ft | 489 kts | 306° |
| 2026-04-20 05:24 | -16.97125 | -53.81883 | 31967 ft | 489 kts | 306° |
| 2026-04-20 05:24 | -16.92711 | -53.87302 | 31963 ft | 490 kts | 306° |
| 2026-04-20 05:25 | -16.88287 | -53.92719 | 31963 ft | 490 kts | 306° |
| 2026-04-20 05:25 | -16.83879 | -53.98107 | 31955 ft | 490 kts | 306° |
| 2026-04-20 05:26 | -16.79455 | -54.03512 | 31948 ft | 489 kts | 307° |
| 2026-04-20 05:26 | -16.75033 | -54.08911 | 31949 ft | 489 kts | 307° |
| 2026-04-20 05:27 | -16.70660 | -54.14247 | 31945 ft | 489 kts | 307° |
| 2026-04-20 05:27 | -16.66260 | -54.19612 | 31942 ft | 490 kts | 307° |
| 2026-04-20 05:28 | -16.61829 | -54.25010 | 31930 ft | 490 kts | 307° |
| 2026-04-20 05:28 | -16.57394 | -54.30408 | 31929 ft | 490 kts | 307° |
| 2026-04-20 05:29 | -16.52959 | -54.35802 | 31923 ft | 490 kts | 307° |
| 2026-04-20 05:29 | -16.48524 | -54.41193 | 31929 ft | 490 kts | 307° |
| 2026-04-20 05:30 | -16.44089 | -54.46580 | 31930 ft | 490 kts | 307° |
| 2026-04-20 05:30 | -16.39665 | -54.51947 | 31932 ft | 490 kts | 307° |
| 2026-04-20 05:31 | -16.35221 | -54.57337 | 31928 ft | 490 kts | 307° |
| 2026-04-20 05:31 | -16.30772 | -54.62727 | 31927 ft | 490 kts | 307° |
| 2026-04-20 05:32 | -16.26328 | -54.68107 | 31933 ft | 490 kts | 307° |
| 2026-04-20 05:32 | -16.21875 | -54.73496 | 31935 ft | 491 kts | 307° |
| 2026-04-20 05:33 | -16.17419 | -54.78882 | 31933 ft | 491 kts | 308° |
| 2026-04-20 05:33 | -16.12962 | -54.84266 | 31937 ft | 491 kts | 308° |
| 2026-04-20 05:34 | -16.09311 | -54.88674 | 31947 ft | 494 kts | 308° |
| 2026-04-20 05:34 | -16.07057 | -54.91395 | 32108 ft | 497 kts | 308° |
| 2026-04-20 05:34 | -16.02560 | -54.96817 | 32819 ft | 493 kts | 308° |
| 2026-04-20 05:35 | -16.00322 | -54.99513 | 33195 ft | 491 kts | 308° |
| 2026-04-20 05:35 | -15.98088 | -55.02203 | 33554 ft | 489 kts | 308° |
| 2026-04-20 05:35 | -15.95867 | -55.04877 | 33870 ft | 489 kts | 308° |
| 2026-04-20 05:35 | -15.93638 | -55.07562 | 33913 ft | 491 kts | 308° |
| 2026-04-20 05:36 | -15.89178 | -55.12930 | 33954 ft | 490 kts | 308° |
| 2026-04-20 05:36 | -15.84760 | -55.18240 | 33953 ft | 487 kts | 308° |
| 2026-04-20 05:37 | -15.80330 | -55.23562 | 33965 ft | 486 kts | 308° |
| 2026-04-20 05:37 | -15.75903 | -55.28878 | 33968 ft | 486 kts | 308° |
| 2026-04-20 05:38 | -15.71531 | -55.34124 | 33964 ft | 487 kts | 308° |
| 2026-04-20 05:38 | -15.67086 | -55.39453 | 33960 ft | 488 kts | 308° |
| 2026-04-20 05:39 | -15.62637 | -55.44783 | 33963 ft | 489 kts | 308° |
| 2026-04-20 05:39 | -15.58197 | -55.50099 | 33961 ft | 490 kts | 308° |
| 2026-04-20 05:40 | -15.53780 | -55.55381 | 33954 ft | 491 kts | 308° |
| 2026-04-20 05:40 | -15.49373 | -55.60649 | 33948 ft | 490 kts | 308° |
| 2026-04-20 05:41 | -15.44911 | -55.65979 | 33946 ft | 489 kts | 308° |
| 2026-04-20 05:41 | -15.40452 | -55.71301 | 33944 ft | 489 kts | 308° |
| 2026-04-20 05:42 | -15.35990 | -55.76624 | 33937 ft | 488 kts | 308° |
| 2026-04-20 05:42 | -15.31529 | -55.81942 | 33940 ft | 488 kts | 309° |
| 2026-04-20 05:43 | -15.27073 | -55.87248 | 33935 ft | 488 kts | 309° |
| 2026-04-20 05:43 | -15.22641 | -55.92524 | 33940 ft | 488 kts | 309° |
| 2026-04-20 05:44 | -15.18182 | -55.97828 | 33937 ft | 488 kts | 309° |
| 2026-04-20 05:44 | -15.13717 | -56.03136 | 33938 ft | 489 kts | 309° |
| 2026-04-20 05:45 | -15.09248 | -56.08445 | 33942 ft | 489 kts | 309° |
| 2026-04-20 05:45 | -15.04772 | -56.13757 | 33929 ft | 490 kts | 309° |
| 2026-04-20 05:46 | -15.00287 | -56.19077 | 33940 ft | 490 kts | 309° |
| 2026-04-20 05:46 | -14.95885 | -56.24294 | 33941 ft | 490 kts | 309° |
| 2026-04-20 05:47 | -14.91382 | -56.29628 | 33934 ft | 490 kts | 309° |
| 2026-04-20 05:47 | -14.86912 | -56.34920 | 33934 ft | 491 kts | 309° |
| 2026-04-20 05:48 | -14.82479 | -56.40164 | 33932 ft | 491 kts | 309° |
| 2026-04-20 05:48 | -14.77981 | -56.45481 | 33939 ft | 491 kts | 309° |
| 2026-04-20 05:49 | -14.73481 | -56.50796 | 33934 ft | 491 kts | 309° |
| 2026-04-20 05:49 | -14.68993 | -56.56094 | 33937 ft | 491 kts | 309° |
| 2026-04-20 05:50 | -14.64486 | -56.61410 | 33931 ft | 491 kts | 309° |
| 2026-04-20 05:50 | -14.59981 | -56.66721 | 33939 ft | 491 kts | 309° |
| 2026-04-20 05:51 | -14.55507 | -56.71993 | 33941 ft | 491 kts | 309° |
| 2026-04-20 05:51 | -14.50989 | -56.77312 | 33937 ft | 491 kts | 309° |
| 2026-04-20 05:52 | -14.46536 | -56.82551 | 33940 ft | 492 kts | 309° |
| 2026-04-20 05:52 | -14.42079 | -56.87791 | 33939 ft | 492 kts | 309° |
| 2026-04-20 05:53 | -14.37565 | -56.93094 | 33948 ft | 491 kts | 309° |
| 2026-04-20 05:53 | -14.33084 | -56.98356 | 33943 ft | 490 kts | 309° |
| 2026-04-20 05:54 | -14.28588 | -57.03631 | 33947 ft | 489 kts | 310° |
| 2026-04-20 05:54 | -14.24094 | -57.08900 | 33946 ft | 489 kts | 310° |
| 2026-04-20 05:55 | -14.19604 | -57.14163 | 33958 ft | 488 kts | 310° |
| 2026-04-20 05:55 | -14.15170 | -57.19355 | 33951 ft | 488 kts | 310° |
| 2026-04-20 05:56 | -14.10693 | -57.24596 | 33951 ft | 487 kts | 310° |
| 2026-04-20 05:56 | -14.06271 | -57.29767 | 33955 ft | 487 kts | 310° |
| 2026-04-20 05:57 | -14.01795 | -57.34998 | 33954 ft | 486 kts | 310° |
| 2026-04-20 05:57 | -13.97407 | -57.40125 | 33964 ft | 487 kts | 311° |
| 2026-04-20 05:58 | -13.92923 | -57.45357 | 33964 ft | 487 kts | 311° |
| 2026-04-20 05:58 | -13.88489 | -57.50531 | 33958 ft | 488 kts | 310° |
| 2026-04-20 05:59 | -13.83983 | -57.55785 | 33965 ft | 491 kts | 310° |
| 2026-04-20 05:59 | -13.79504 | -57.61004 | 33969 ft | 493 kts | 310° |
| 2026-04-20 06:00 | -13.74948 | -57.66310 | 33967 ft | 495 kts | 311° |
| 2026-04-20 06:00 | -13.70409 | -57.71591 | 33965 ft | 496 kts | 311° |
| 2026-04-20 06:01 | -13.65840 | -57.76904 | 33957 ft | 495 kts | 311° |
| 2026-04-20 06:01 | -13.61280 | -57.82203 | 33959 ft | 493 kts | 310° |
| 2026-04-20 06:02 | -13.56736 | -57.87480 | 33953 ft | 491 kts | 310° |
| 2026-04-20 06:02 | -13.52205 | -57.92739 | 33958 ft | 490 kts | 310° |
| 2026-04-20 06:03 | -13.47719 | -57.97944 | 33953 ft | 489 kts | 311° |
| 2026-04-20 06:03 | -13.43320 | -58.03044 | 33954 ft | 489 kts | 311° |
| 2026-04-20 06:04 | -13.38810 | -58.08269 | 33956 ft | 489 kts | 311° |
| 2026-04-20 06:04 | -13.34286 | -58.13507 | 33954 ft | 490 kts | 310° |
| 2026-04-20 06:05 | -13.29751 | -58.18755 | 33955 ft | 492 kts | 310° |
| 2026-04-20 06:05 | -13.25209 | -58.24008 | 33954 ft | 493 kts | 311° |
| 2026-04-20 06:06 | -13.20655 | -58.29272 | 33955 ft | 493 kts | 311° |
| 2026-04-20 06:06 | -13.16143 | -58.34483 | 33953 ft | 494 kts | 311° |
| 2026-04-20 06:07 | -13.11570 | -58.39761 | 33949 ft | 494 kts | 311° |
| 2026-04-20 06:07 | -13.07006 | -58.45027 | 33947 ft | 494 kts | 311° |
| 2026-04-20 06:08 | -13.02442 | -58.50289 | 33953 ft | 493 kts | 311° |
| 2026-04-20 06:08 | -12.97949 | -58.55466 | 33946 ft | 491 kts | 311° |
| 2026-04-20 06:09 | -12.93416 | -58.60687 | 33940 ft | 490 kts | 311° |
| 2026-04-20 06:09 | -12.88888 | -58.65898 | 33943 ft | 488 kts | 311° |
| 2026-04-20 06:10 | -12.84396 | -58.71064 | 33952 ft | 487 kts | 311° |
| 2026-04-20 06:10 | -12.79889 | -58.76247 | 33946 ft | 487 kts | 311° |
| 2026-04-20 06:11 | -12.75430 | -58.81369 | 33944 ft | 487 kts | 311° |
| 2026-04-20 06:11 | -12.70921 | -58.86547 | 33943 ft | 487 kts | 311° |
| 2026-04-20 06:12 | -12.66395 | -58.91740 | 33943 ft | 488 kts | 311° |
| 2026-04-20 06:12 | -12.61900 | -58.96896 | 33940 ft | 488 kts | 311° |
| 2026-04-20 06:13 | -12.57428 | -59.02022 | 33943 ft | 489 kts | 311° |
| 2026-04-20 06:13 | -12.52896 | -59.07215 | 33941 ft | 489 kts | 311° |
| 2026-04-20 06:14 | -12.48363 | -59.12404 | 33938 ft | 489 kts | 311° |
| 2026-04-20 06:14 | -12.43884 | -59.17530 | 33936 ft | 489 kts | 311° |
| 2026-04-20 06:15 | -12.39341 | -59.22725 | 33939 ft | 489 kts | 311° |
| 2026-04-20 06:15 | -12.34801 | -59.27915 | 33937 ft | 489 kts | 311° |
| 2026-04-20 06:16 | -12.30257 | -59.33106 | 33938 ft | 489 kts | 311° |
| 2026-04-20 06:16 | -12.25718 | -59.38289 | 33940 ft | 489 kts | 313° |
| 2026-04-20 06:17 | -12.21233 | -59.43407 | 33938 ft | 489 kts | 313° |
| 2026-04-20 06:17 | -12.16726 | -59.48546 | 33939 ft | 488 kts | 313° |
| 2026-04-20 06:18 | -12.12189 | -59.53718 | 33942 ft | 488 kts | 313° |
| 2026-04-20 06:18 | -12.07658 | -59.58881 | 33944 ft | 488 kts | 313° |
| 2026-04-20 06:19 | -12.03119 | -59.64048 | 33937 ft | 489 kts | 313° |
| 2026-04-20 06:19 | -11.98571 | -59.69225 | 33952 ft | 489 kts | 313° |
| 2026-04-20 06:20 | -11.94043 | -59.74375 | 33939 ft | 489 kts | 313° |
| 2026-04-20 06:20 | -11.89548 | -59.79485 | 33938 ft | 489 kts | 313° |
| 2026-04-20 06:21 | -11.84998 | -59.84656 | 33939 ft | 489 kts | 313° |
| 2026-04-20 06:21 | -11.80452 | -59.89820 | 33937 ft | 488 kts | 313° |
| 2026-04-20 06:22 | -11.76678 | -59.94108 | 33932 ft | 488 kts | 312° |
| 2026-04-20 06:22 | -11.72311 | -59.99422 | 33938 ft | 488 kts | 310° |
| 2026-04-20 06:23 | -11.67416 | -60.05621 | 33935 ft | 488 kts | 309° |
| 2026-04-20 06:23 | -11.63856 | -60.10101 | 33942 ft | 489 kts | 310° |
| 2026-04-20 06:24 | -11.59546 | -60.15475 | 33938 ft | 489 kts | 310° |
| 2026-04-20 06:24 | -11.55226 | -60.20837 | 33943 ft | 488 kts | 310° |
| 2026-04-20 06:25 | -11.50215 | -60.27050 | 33933 ft | 487 kts | 310° |
| 2026-04-20 06:25 | -11.46609 | -60.31522 | 33933 ft | 486 kts | 310° |
| 2026-04-20 06:26 | -11.42314 | -60.36845 | 33937 ft | 486 kts | 310° |
| 2026-04-20 06:26 | -11.38042 | -60.42140 | 33934 ft | 487 kts | 310° |
| 2026-04-20 06:27 | -11.33727 | -60.47484 | 33928 ft | 488 kts | 310° |
| 2026-04-20 06:27 | -11.29404 | -60.52835 | 33937 ft | 489 kts | 310° |
| 2026-04-20 06:28 | -11.25074 | -60.58192 | 33935 ft | 490 kts | 310° |
| 2026-04-20 06:28 | -11.20735 | -60.63557 | 33930 ft | 490 kts | 310° |
| 2026-04-20 06:29 | -11.16421 | -60.68888 | 33928 ft | 490 kts | 310° |
| 2026-04-20 06:29 | -11.12080 | -60.74251 | 33929 ft | 490 kts | 310° |
| 2026-04-20 06:30 | -11.07744 | -60.79603 | 33933 ft | 489 kts | 310° |
| 2026-04-20 06:30 | -11.03415 | -60.84946 | 33925 ft | 489 kts | 310° |
| 2026-04-20 06:31 | -10.99085 | -60.90286 | 33926 ft | 488 kts | 310° |
| 2026-04-20 06:31 | -10.94761 | -60.95616 | 33926 ft | 488 kts | 310° |
| 2026-04-20 06:32 | -10.90441 | -61.00938 | 33930 ft | 488 kts | 310° |
| 2026-04-20 06:32 | -10.86148 | -61.06226 | 33921 ft | 488 kts | 310° |
| 2026-04-20 06:33 | -10.81803 | -61.11573 | 33933 ft | 490 kts | 310° |
| 2026-04-20 06:33 | -10.77449 | -61.16929 | 33927 ft | 491 kts | 310° |
| 2026-04-20 06:34 | -10.73082 | -61.22299 | 33932 ft | 493 kts | 310° |
| 2026-04-20 06:35 | -10.66547 | -61.30329 | 33933 ft | 494 kts | 310° |
| 2026-04-20 06:35 | -10.62167 | -61.35709 | 33923 ft | 494 kts | 310° |
| 2026-04-20 06:36 | -10.57788 | -61.41084 | 33927 ft | 492 kts | 310° |
| 2026-04-20 06:36 | -10.53425 | -61.46437 | 33925 ft | 491 kts | 310° |
| 2026-04-20 06:37 | -10.49076 | -61.51770 | 33920 ft | 489 kts | 310° |
| 2026-04-20 06:37 | -10.44733 | -61.57093 | 33929 ft | 488 kts | 310° |
| 2026-04-20 06:38 | -10.40400 | -61.62401 | 33925 ft | 488 kts | 310° |
| 2026-04-20 06:38 | -10.36071 | -61.67702 | 33918 ft | 488 kts | 310° |
| 2026-04-20 06:39 | -10.31739 | -61.73004 | 33929 ft | 488 kts | 310° |
| 2026-04-20 06:39 | -10.27477 | -61.78217 | 33923 ft | 489 kts | 310° |
| 2026-04-20 06:40 | -10.23128 | -61.83536 | 33922 ft | 489 kts | 310° |
| 2026-04-20 06:40 | -10.18777 | -61.88853 | 33925 ft | 490 kts | 310° |
| 2026-04-20 06:41 | -10.14416 | -61.94181 | 33931 ft | 490 kts | 310° |
| 2026-04-20 06:41 | -10.10060 | -61.99499 | 33929 ft | 490 kts | 310° |
| 2026-04-20 06:42 | -10.05734 | -62.04779 | 33923 ft | 489 kts | 310° |
| 2026-04-20 06:42 | -10.01386 | -62.10083 | 33922 ft | 488 kts | 310° |
| 2026-04-20 06:43 | -9.97040 | -62.15383 | 33919 ft | 488 kts | 310° |
| 2026-04-20 06:43 | -9.92742 | -62.20620 | 33926 ft | 488 kts | 310° |
| 2026-04-20 06:44 | -9.88393 | -62.25919 | 33930 ft | 488 kts | 310° |
| 2026-04-20 06:44 | -9.84056 | -62.31200 | 33922 ft | 487 kts | 310° |
| 2026-04-20 06:45 | -9.79741 | -62.36453 | 33920 ft | 486 kts | 310° |
| 2026-04-20 06:45 | -9.75396 | -62.41738 | 33921 ft | 486 kts | 310° |
| 2026-04-20 06:46 | -9.71098 | -62.46965 | 33925 ft | 486 kts | 310° |
| 2026-04-20 06:46 | -9.66757 | -62.52241 | 33931 ft | 489 kts | 310° |
| 2026-04-20 06:47 | -9.62388 | -62.57550 | 33933 ft | 492 kts | 310° |
| 2026-04-20 06:47 | -9.57983 | -62.62899 | 33938 ft | 495 kts | 310° |
| 2026-04-20 06:48 | -9.53551 | -62.68279 | 33929 ft | 497 kts | 310° |
| 2026-04-20 06:48 | -9.49198 | -62.73560 | 33927 ft | 497 kts | 310° |
| 2026-04-20 06:49 | -9.44756 | -62.78948 | 33925 ft | 497 kts | 310° |
| 2026-04-20 06:49 | -9.40332 | -62.84312 | 33922 ft | 495 kts | 311° |
| 2026-04-20 06:50 | -9.35926 | -62.89651 | 33925 ft | 493 kts | 311° |
| 2026-04-20 06:50 | -9.31586 | -62.94907 | 33919 ft | 491 kts | 311° |
| 2026-04-20 06:51 | -9.27214 | -63.00201 | 33917 ft | 489 kts | 311° |
| 2026-04-20 06:51 | -9.22872 | -63.05455 | 33924 ft | 489 kts | 311° |
| 2026-04-20 06:52 | -9.18563 | -63.10668 | 33924 ft | 489 kts | 311° |
| 2026-04-20 06:52 | -9.14194 | -63.15951 | 33925 ft | 490 kts | 311° |
| 2026-04-20 06:53 | -9.09813 | -63.21246 | 33936 ft | 491 kts | 311° |
| 2026-04-20 06:53 | -9.05414 | -63.26561 | 33931 ft | 492 kts | 311° |
| 2026-04-20 06:54 | -9.01014 | -63.31875 | 33927 ft | 493 kts | 311° |
| 2026-04-20 06:54 | -8.96610 | -63.37193 | 33922 ft | 493 kts | 311° |
| 2026-04-20 06:55 | -8.92203 | -63.42514 | 33924 ft | 493 kts | 311° |
| 2026-04-20 06:55 | -8.87787 | -63.47822 | 33921 ft | 493 kts | 312° |
| 2026-04-20 06:56 | -8.83204 | -63.52923 | 33927 ft | 492 kts | 314° |
| 2026-04-20 06:56 | -8.78515 | -63.57970 | 33928 ft | 492 kts | 314° |
| 2026-04-20 06:57 | -8.73905 | -63.62968 | 33919 ft | 492 kts | 314° |
| 2026-04-20 06:57 | -8.69308 | -63.67999 | 33925 ft | 493 kts | 314° |
| 2026-04-20 06:58 | -8.64664 | -63.73098 | 33923 ft | 493 kts | 314° |
| 2026-04-20 06:58 | -8.60042 | -63.78172 | 33917 ft | 493 kts | 314° |
| 2026-04-20 06:59 | -8.55394 | -63.83269 | 33911 ft | 493 kts | 314° |
| 2026-04-20 06:59 | -8.50751 | -63.88357 | 33915 ft | 492 kts | 314° |
| 2026-04-20 07:00 | -8.46106 | -63.93444 | 33905 ft | 492 kts | 314° |
| 2026-04-20 07:00 | -8.41461 | -63.98531 | 33927 ft | 492 kts | 314° |
| 2026-04-20 07:01 | -8.36816 | -64.03615 | 33924 ft | 492 kts | 314° |
| 2026-04-20 07:01 | -8.32198 | -64.08668 | 33927 ft | 493 kts | 314° |
| 2026-04-20 07:02 | -8.27547 | -64.13756 | 33929 ft | 493 kts | 314° |
| 2026-04-20 07:02 | -8.22963 | -64.18768 | 33919 ft | 493 kts | 314° |
| 2026-04-20 07:03 | -8.18303 | -64.23861 | 33928 ft | 493 kts | 314° |
| 2026-04-20 07:03 | -8.13754 | -64.28831 | 33929 ft | 494 kts | 314° |
| 2026-04-20 07:04 | -8.09084 | -64.33932 | 33927 ft | 495 kts | 314° |
| 2026-04-20 07:04 | -8.04405 | -64.39040 | 33923 ft | 495 kts | 313° |
| 2026-04-20 07:05 | -7.99761 | -64.44109 | 33926 ft | 495 kts | 313° |
| 2026-04-20 07:05 | -7.95077 | -64.49219 | 33922 ft | 496 kts | 313° |
| 2026-04-20 07:06 | -7.90395 | -64.54325 | 33931 ft | 496 kts | 313° |
| 2026-04-20 07:06 | -7.85710 | -64.59433 | 33932 ft | 496 kts | 314° |
| 2026-04-20 07:07 | -7.81070 | -64.64490 | 33921 ft | 496 kts | 314° |
| 2026-04-20 07:07 | -7.76382 | -64.69597 | 33929 ft | 496 kts | 314° |
| 2026-04-20 07:08 | -7.71758 | -64.74632 | 33914 ft | 496 kts | 314° |
| 2026-04-20 07:08 | -7.67099 | -64.79704 | 33929 ft | 495 kts | 314° |
| 2026-04-20 07:09 | -7.62416 | -64.84802 | 33926 ft | 495 kts | 314° |
| 2026-04-20 07:09 | -7.57728 | -64.89901 | 33926 ft | 495 kts | 314° |
| 2026-04-20 07:10 | -7.53042 | -64.94997 | 33916 ft | 495 kts | 314° |
| 2026-04-20 07:10 | -7.48419 | -65.00023 | 33925 ft | 495 kts | 314° |
| 2026-04-20 07:11 | -7.44519 | -65.04262 | 33931 ft | 495 kts | 314° |
| 2026-04-20 07:11 | -7.39890 | -65.09291 | 33922 ft | 496 kts | 314° |
| 2026-04-20 07:12 | -7.35202 | -65.14383 | 33925 ft | 496 kts | 314° |
| 2026-04-20 07:12 | -7.30509 | -65.19479 | 33933 ft | 496 kts | 314° |
| 2026-04-20 07:13 | -7.25813 | -65.24576 | 33912 ft | 496 kts | 314° |
| 2026-04-20 07:13 | -7.21149 | -65.29637 | 33932 ft | 496 kts | 314° |
| 2026-04-20 07:14 | -7.16425 | -65.34761 | 33932 ft | 496 kts | 314° |
| 2026-04-20 07:14 | -7.11752 | -65.39828 | 33913 ft | 496 kts | 314° |
| 2026-04-20 07:15 | -7.07050 | -65.44925 | 33922 ft | 496 kts | 314° |
| 2026-04-20 07:15 | -7.02347 | -65.50022 | 33932 ft | 496 kts | 314° |
| 2026-04-20 07:16 | -6.97677 | -65.55080 | 33918 ft | 496 kts | 314° |
| 2026-04-20 07:16 | -6.92974 | -65.60174 | 33925 ft | 496 kts | 314° |
| 2026-04-20 07:17 | -6.88278 | -65.65258 | 33932 ft | 496 kts | 313° |
| 2026-04-20 07:17 | -6.83585 | -65.70337 | 33932 ft | 495 kts | 313° |
| 2026-04-20 07:18 | -6.78888 | -65.75419 | 33913 ft | 495 kts | 313° |
| 2026-04-20 07:18 | -6.74224 | -65.80463 | 33913 ft | 495 kts | 313° |
| 2026-04-20 07:19 | -6.69537 | -65.85532 | 33916 ft | 495 kts | 313° |
| 2026-04-20 07:19 | -6.64844 | -65.90605 | 33925 ft | 495 kts | 313° |
| 2026-04-20 07:20 | -6.60148 | -65.95679 | 33911 ft | 495 kts | 313° |
| 2026-04-20 07:20 | -6.55456 | -66.00748 | 33917 ft | 496 kts | 314° |
| 2026-04-20 07:21 | -6.50739 | -66.05843 | 33915 ft | 497 kts | 314° |
| 2026-04-20 07:21 | -6.46020 | -66.10937 | 33913 ft | 498 kts | 314° |
| 2026-04-20 07:22 | -6.41321 | -66.16010 | 33917 ft | 499 kts | 314° |
| 2026-04-20 07:22 | -6.36556 | -66.21152 | 33926 ft | 499 kts | 314° |
| 2026-04-20 07:23 | -6.31853 | -66.26225 | 33914 ft | 499 kts | 314° |
| 2026-04-20 07:23 | -6.27123 | -66.31326 | 33913 ft | 499 kts | 314° |
| 2026-04-20 07:24 | -6.22391 | -66.36427 | 33920 ft | 499 kts | 314° |
| 2026-04-20 07:24 | -6.17660 | -66.41526 | 33917 ft | 499 kts | 314° |
| 2026-04-20 07:25 | -6.12925 | -66.46628 | 33917 ft | 499 kts | 314° |
| 2026-04-20 07:25 | -6.08192 | -66.51727 | 33932 ft | 499 kts | 314° |
| 2026-04-20 07:26 | -6.03452 | -66.56831 | 33919 ft | 499 kts | 314° |
| 2026-04-20 07:26 | -5.98718 | -66.61928 | 33914 ft | 499 kts | 314° |
| 2026-04-20 07:27 | -5.94063 | -66.66938 | 33914 ft | 498 kts | 314° |
| 2026-04-20 07:27 | -5.89334 | -66.72027 | 33914 ft | 498 kts | 314° |
| 2026-04-20 07:28 | -5.84599 | -66.77120 | 33913 ft | 499 kts | 314° |
| 2026-04-20 07:28 | -5.79861 | -66.82216 | 33916 ft | 499 kts | 314° |
| 2026-04-20 07:29 | -5.75120 | -66.87314 | 33915 ft | 499 kts | 314° |
| 2026-04-20 07:29 | -5.70374 | -66.92414 | 33913 ft | 499 kts | 314° |
| 2026-04-20 07:30 | -5.65630 | -66.97512 | 33912 ft | 499 kts | 314° |
| 2026-04-20 07:30 | -5.60957 | -67.02532 | 33923 ft | 499 kts | 314° |
| 2026-04-20 07:31 | -5.56214 | -67.07627 | 33915 ft | 499 kts | 314° |
| 2026-04-20 07:31 | -5.51468 | -67.12724 | 33915 ft | 499 kts | 314° |
| 2026-04-20 07:32 | -5.46726 | -67.17814 | 33912 ft | 499 kts | 314° |
| 2026-04-20 07:32 | -5.41985 | -67.22902 | 33913 ft | 499 kts | 314° |
| 2026-04-20 07:33 | -5.37302 | -67.27927 | 33913 ft | 499 kts | 314° |
| 2026-04-20 07:33 | -5.32553 | -67.33021 | 33913 ft | 499 kts | 314° |
| 2026-04-20 07:34 | -5.27843 | -67.38073 | 33910 ft | 499 kts | 314° |
| 2026-04-20 07:34 | -5.23094 | -67.43165 | 33908 ft | 499 kts | 314° |
| 2026-04-20 07:35 | -5.15970 | -67.50801 | 33912 ft | 500 kts | 314° |
| 2026-04-20 07:35 | -5.11215 | -67.55896 | 33914 ft | 500 kts | 314° |
| 2026-04-20 07:36 | -5.06463 | -67.60987 | 33909 ft | 500 kts | 314° |
| 2026-04-20 07:36 | -5.01711 | -67.66077 | 33910 ft | 499 kts | 314° |
| 2026-04-20 07:37 | -4.96993 | -67.71129 | 33909 ft | 499 kts | 314° |
| 2026-04-20 07:37 | -4.92242 | -67.76216 | 33914 ft | 499 kts | 314° |
| 2026-04-20 07:38 | -4.87617 | -67.81166 | 33909 ft | 499 kts | 314° |
| 2026-04-20 07:38 | -4.82810 | -67.86310 | 33910 ft | 499 kts | 314° |
| 2026-04-20 07:39 | -4.78090 | -67.91361 | 33910 ft | 499 kts | 314° |
| 2026-04-20 07:39 | -4.73327 | -67.96455 | 33910 ft | 499 kts | 314° |
| 2026-04-20 07:40 | -4.68575 | -68.01537 | 33910 ft | 500 kts | 314° |
| 2026-04-20 07:40 | -4.63823 | -68.06618 | 33909 ft | 500 kts | 314° |
| 2026-04-20 07:41 | -4.59068 | -68.11701 | 33910 ft | 500 kts | 314° |
| 2026-04-20 07:41 | -4.54304 | -68.16793 | 33907 ft | 501 kts | 314° |
| 2026-04-20 07:42 | -4.49531 | -68.21892 | 33912 ft | 502 kts | 314° |
| 2026-04-20 07:42 | -4.44751 | -68.27000 | 33907 ft | 502 kts | 314° |
| 2026-04-20 07:43 | -4.39970 | -68.32106 | 33908 ft | 502 kts | 314° |
| 2026-04-20 07:43 | -4.35224 | -68.37174 | 33907 ft | 502 kts | 314° |
| 2026-04-20 07:44 | -4.30443 | -68.42279 | 33907 ft | 502 kts | 314° |
| 2026-04-20 07:44 | -4.25746 | -68.47293 | 33907 ft | 502 kts | 314° |
| 2026-04-20 07:45 | -4.20965 | -68.52397 | 33903 ft | 502 kts | 314° |
| 2026-04-20 07:45 | -4.16176 | -68.57506 | 33911 ft | 503 kts | 314° |
| 2026-04-20 07:46 | -4.11387 | -68.62617 | 33909 ft | 503 kts | 314° |
| 2026-04-20 07:46 | -4.06599 | -68.67725 | 33906 ft | 503 kts | 314° |
| 2026-04-20 07:47 | -4.01841 | -68.72800 | 33903 ft | 503 kts | 314° |
| 2026-04-20 07:47 | -3.96967 | -68.77824 | 33907 ft | 503 kts | 316° |
| 2026-04-20 07:48 | -3.91959 | -68.82714 | 33902 ft | 502 kts | 317° |
| 2026-04-20 07:48 | -3.86954 | -68.87599 | 33902 ft | 502 kts | 316° |
| 2026-04-20 07:49 | -3.81965 | -68.92513 | 33902 ft | 502 kts | 316° |
| 2026-04-20 07:49 | -3.77115 | -68.97310 | 33900 ft | 502 kts | 316° |
| 2026-04-20 07:50 | -3.72145 | -69.02228 | 33899 ft | 502 kts | 316° |
| 2026-04-20 07:50 | -3.67177 | -69.07141 | 33899 ft | 502 kts | 316° |
| 2026-04-20 07:51 | -3.62203 | -69.12056 | 33898 ft | 502 kts | 316° |
| 2026-04-20 07:51 | -3.57261 | -69.16939 | 33903 ft | 502 kts | 316° |
| 2026-04-20 07:52 | -3.52319 | -69.21821 | 33896 ft | 502 kts | 316° |
| 2026-04-20 07:52 | -3.47376 | -69.26704 | 33901 ft | 503 kts | 316° |
| 2026-04-20 07:53 | -3.42396 | -69.31622 | 33900 ft | 503 kts | 316° |
| 2026-04-20 07:53 | -3.37409 | -69.36548 | 33898 ft | 503 kts | 316° |
| 2026-04-20 07:54 | -3.32421 | -69.41472 | 33899 ft | 503 kts | 316° |
| 2026-04-20 07:54 | -3.27432 | -69.46397 | 33898 ft | 503 kts | 316° |
| 2026-04-20 07:55 | -3.22477 | -69.51288 | 33901 ft | 503 kts | 316° |
| 2026-04-20 07:55 | -3.17487 | -69.56214 | 33898 ft | 504 kts | 316° |
| 2026-04-20 07:56 | -3.12494 | -69.61142 | 33898 ft | 504 kts | 316° |
| 2026-04-20 07:56 | -3.07557 | -69.66014 | 33901 ft | 504 kts | 316° |
| 2026-04-20 07:57 | -3.02560 | -69.70943 | 33898 ft | 504 kts | 316° |
| 2026-04-20 07:57 | -2.97607 | -69.75850 | 33896 ft | 504 kts | 316° |
| 2026-04-20 07:58 | -2.92690 | -69.80742 | 33895 ft | 504 kts | 316° |
| 2026-04-20 07:58 | -2.87722 | -69.85682 | 33896 ft | 504 kts | 316° |
| 2026-04-20 07:59 | -2.83580 | -69.89799 | 33892 ft | 504 kts | 316° |
| 2026-04-20 07:59 | -2.78605 | -69.94741 | 33893 ft | 504 kts | 316° |
| 2026-04-20 08:00 | -2.73625 | -69.99689 | 33895 ft | 505 kts | 316° |
| 2026-04-20 08:00 | -2.68680 | -70.04687 | 33896 ft | 505 kts | 314° |
| 2026-04-20 08:01 | -2.63952 | -70.09892 | 33894 ft | 505 kts | 313° |
| 2026-04-20 08:01 | -2.59259 | -70.15138 | 33889 ft | 505 kts | 313° |
| 2026-04-20 08:02 | -2.54629 | -70.20250 | 33890 ft | 505 kts | 313° |
| 2026-04-20 08:02 | -2.49883 | -70.25448 | 33891 ft | 505 kts | 313° |
| 2026-04-20 08:03 | -2.45132 | -70.30643 | 33891 ft | 505 kts | 313° |
| 2026-04-20 08:03 | -2.40384 | -70.35838 | 33890 ft | 506 kts | 313° |
| 2026-04-20 08:04 | -2.35635 | -70.41037 | 33891 ft | 506 kts | 313° |
| 2026-04-20 08:04 | -2.30924 | -70.46194 | 33890 ft | 506 kts | 313° |
| 2026-04-20 08:05 | -2.26238 | -70.51322 | 33888 ft | 506 kts | 313° |
| 2026-04-20 08:05 | -2.21486 | -70.56523 | 33887 ft | 506 kts | 313° |
| 2026-04-20 08:06 | -2.16735 | -70.61721 | 33891 ft | 506 kts | 313° |
| 2026-04-20 08:06 | -2.11984 | -70.66920 | 33889 ft | 506 kts | 313° |
| 2026-04-20 08:07 | -2.07261 | -70.72087 | 33892 ft | 506 kts | 313° |
| 2026-04-20 08:07 | -2.02503 | -70.77293 | 33888 ft | 507 kts | 313° |
| 2026-04-20 08:08 | -1.97740 | -70.82504 | 33891 ft | 507 kts | 313° |
| 2026-04-20 08:08 | -1.92985 | -70.87709 | 33890 ft | 507 kts | 313° |
| 2026-04-20 08:09 | -1.88240 | -70.92917 | 33893 ft | 506 kts | 313° |
| 2026-04-20 08:09 | -1.83498 | -70.98125 | 33889 ft | 506 kts | 313° |
| 2026-04-20 08:10 | -1.78786 | -71.03298 | 33885 ft | 505 kts | 313° |
| 2026-04-20 08:10 | -1.74113 | -71.08427 | 33888 ft | 505 kts | 313° |
| 2026-04-20 08:11 | -1.69380 | -71.13622 | 33890 ft | 505 kts | 313° |
| 2026-04-20 08:11 | -1.64650 | -71.18812 | 33888 ft | 505 kts | 313° |
| 2026-04-20 08:12 | -1.59916 | -71.24007 | 33890 ft | 505 kts | 313° |
| 2026-04-20 08:12 | -1.55212 | -71.29169 | 33884 ft | 505 kts | 313° |
| 2026-04-20 08:13 | -1.50479 | -71.34362 | 33887 ft | 506 kts | 313° |
| 2026-04-20 08:13 | -1.45737 | -71.39563 | 33885 ft | 506 kts | 313° |
| 2026-04-20 08:14 | -1.40998 | -71.44762 | 33885 ft | 506 kts | 313° |
| 2026-04-20 08:14 | -1.36252 | -71.49969 | 33885 ft | 506 kts | 313° |
| 2026-04-20 08:15 | -1.31509 | -71.55171 | 33885 ft | 506 kts | 313° |
| 2026-04-20 08:15 | -1.26765 | -71.60375 | 33882 ft | 506 kts | 313° |
| 2026-04-20 08:16 | -1.22017 | -71.65582 | 33886 ft | 507 kts | 313° |
| 2026-04-20 08:16 | -1.17295 | -71.70760 | 33885 ft | 507 kts | 313° |
| 2026-04-20 08:17 | -1.12539 | -71.75977 | 33891 ft | 507 kts | 313° |
| 2026-04-20 08:17 | -1.07839 | -71.81129 | 33888 ft | 507 kts | 313° |
| 2026-04-20 08:18 | -1.03089 | -71.86339 | 33891 ft | 507 kts | 313° |
| 2026-04-20 08:18 | -0.98397 | -71.91483 | 33891 ft | 507 kts | 313° |
| 2026-04-20 08:19 | -0.93672 | -71.96664 | 33889 ft | 507 kts | 313° |
| 2026-04-20 08:19 | -0.88915 | -72.01878 | 33892 ft | 507 kts | 313° |
| 2026-04-20 08:20 | -0.84167 | -72.07084 | 33887 ft | 507 kts | 313° |
| 2026-04-20 08:20 | -0.79422 | -72.12286 | 33892 ft | 507 kts | 313° |
| 2026-04-20 08:21 | -0.74669 | -72.17496 | 33890 ft | 507 kts | 313° |
| 2026-04-20 08:21 | -0.69913 | -72.22710 | 33892 ft | 507 kts | 313° |
| 2026-04-20 08:22 | -0.65167 | -72.27912 | 33894 ft | 506 kts | 312° |
| 2026-04-20 08:22 | -0.60490 | -72.33038 | 33891 ft | 505 kts | 312° |
| 2026-04-20 08:23 | -0.55791 | -72.38190 | 33893 ft | 504 kts | 312° |
| 2026-04-20 08:23 | -0.51073 | -72.43361 | 33890 ft | 503 kts | 312° |
| 2026-04-20 08:24 | -0.46360 | -72.48527 | 33893 ft | 503 kts | 312° |
| 2026-04-20 08:24 | -0.41649 | -72.53690 | 33894 ft | 502 kts | 312° |
| 2026-04-20 08:25 | -0.36942 | -72.58849 | 33901 ft | 502 kts | 312° |
| 2026-04-20 08:25 | -0.32224 | -72.64020 | 33895 ft | 503 kts | 312° |
| 2026-04-20 08:26 | -0.27541 | -72.69153 | 33898 ft | 503 kts | 312° |
| 2026-04-20 08:26 | -0.22827 | -72.74320 | 33895 ft | 503 kts | 312° |
| 2026-04-20 08:27 | -0.18115 | -72.79485 | 33895 ft | 503 kts | 312° |
| 2026-04-20 08:27 | -0.13397 | -72.84656 | 33896 ft | 503 kts | 312° |
| 2026-04-20 08:28 | -0.08675 | -72.89833 | 33895 ft | 503 kts | 312° |
| 2026-04-20 08:28 | -0.04013 | -72.94931 | 33895 ft | 503 kts | 313° |
| 2026-04-20 08:29 | 0.00642 | -72.99988 | 33901 ft | 501 kts | 312° |
| 2026-04-20 08:29 | 0.05293 | -73.05039 | 33890 ft | 499 kts | 312° |
| 2026-04-20 08:30 | 0.09981 | -73.10136 | 33890 ft | 496 kts | 312° |
| 2026-04-20 08:30 | 0.14644 | -73.15209 | 33898 ft | 495 kts | 312° |
| 2026-04-20 08:31 | 0.19269 | -73.20240 | 33901 ft | 494 kts | 312° |
| 2026-04-20 08:31 | 0.23873 | -73.25249 | 33898 ft | 494 kts | 312° |
| 2026-04-20 08:32 | 0.28533 | -73.30318 | 33900 ft | 495 kts | 312° |
| 2026-04-20 08:32 | 0.33200 | -73.35395 | 33900 ft | 496 kts | 312° |
| 2026-04-20 08:33 | 0.40177 | -73.42986 | 33901 ft | 497 kts | 312° |
| 2026-04-20 08:34 | 0.44801 | -73.48016 | 33901 ft | 498 kts | 312° |
| 2026-04-20 08:34 | 0.49489 | -73.53116 | 33899 ft | 498 kts | 312° |
| 2026-04-20 08:35 | 0.54121 | -73.58156 | 33899 ft | 499 kts | 312° |
| 2026-04-20 08:35 | 0.58820 | -73.63267 | 33898 ft | 498 kts | 312° |
| 2026-04-20 08:36 | 0.63507 | -73.68367 | 33895 ft | 499 kts | 312° |
| 2026-04-20 08:36 | 0.68207 | -73.73481 | 33900 ft | 499 kts | 312° |
| 2026-04-20 08:37 | 0.72846 | -73.78529 | 33896 ft | 499 kts | 312° |
| 2026-04-20 08:37 | 0.77541 | -73.83638 | 33901 ft | 499 kts | 312° |
| 2026-04-20 08:38 | 0.82219 | -73.88728 | 33901 ft | 500 kts | 312° |
| 2026-04-20 08:38 | 0.86921 | -73.93845 | 33898 ft | 500 kts | 312° |
| 2026-04-20 08:39 | 0.91632 | -73.98972 | 33899 ft | 500 kts | 312° |
| 2026-04-20 08:39 | 0.96339 | -74.04096 | 33897 ft | 500 kts | 312° |
| 2026-04-20 08:40 | 1.00960 | -74.09127 | 33900 ft | 501 kts | 312° |
| 2026-04-20 08:40 | 1.05673 | -74.14258 | 33899 ft | 501 kts | 312° |
| 2026-04-20 08:41 | 1.10371 | -74.19399 | 33902 ft | 501 kts | 311° |
| 2026-04-20 08:41 | 1.15067 | -74.24553 | 33898 ft | 501 kts | 311° |
| 2026-04-20 08:42 | 1.19769 | -74.29712 | 33900 ft | 502 kts | 311° |
| 2026-04-20 08:42 | 1.24473 | -74.34872 | 33898 ft | 502 kts | 311° |
| 2026-04-20 08:43 | 1.29183 | -74.40036 | 33895 ft | 502 kts | 311° |
| 2026-04-20 08:43 | 1.33891 | -74.45199 | 33900 ft | 503 kts | 311° |
| 2026-04-20 08:44 | 1.38575 | -74.50336 | 33899 ft | 503 kts | 311° |
| 2026-04-20 08:44 | 1.43223 | -74.55433 | 33899 ft | 503 kts | 311° |
| 2026-04-20 08:45 | 1.47873 | -74.60534 | 33898 ft | 503 kts | 311° |
| 2026-04-20 08:45 | 1.52588 | -74.65706 | 33898 ft | 503 kts | 311° |
| 2026-04-20 08:46 | 1.56506 | -74.70004 | 33900 ft | 503 kts | 311° |
| 2026-04-20 08:46 | 1.61224 | -74.75180 | 33899 ft | 503 kts | 311° |
| 2026-04-20 08:47 | 1.66704 | -74.81192 | 33901 ft | 503 kts | 311° |
| 2026-04-20 08:47 | 1.71362 | -74.86303 | 33902 ft | 503 kts | 311° |
| 2026-04-20 08:48 | 1.75261 | -74.90582 | 33901 ft | 504 kts | 311° |
| 2026-04-20 08:48 | 1.79947 | -74.95724 | 33909 ft | 504 kts | 311° |
| 2026-04-20 08:49 | 1.84610 | -75.00842 | 33910 ft | 504 kts | 311° |
| 2026-04-20 08:49 | 1.89327 | -75.06019 | 33910 ft | 503 kts | 311° |
| 2026-04-20 08:50 | 1.93956 | -75.11101 | 33944 ft | 502 kts | 311° |
| 2026-04-20 08:50 | 1.98652 | -75.16256 | 33939 ft | 501 kts | 311° |
| 2026-04-20 08:51 | 2.03329 | -75.21390 | 33968 ft | 499 kts | 311° |
| 2026-04-20 08:51 | 2.08005 | -75.26524 | 33992 ft | 498 kts | 311° |
| 2026-04-20 08:52 | 2.12560 | -75.31526 | 33994 ft | 498 kts | 311° |
| 2026-04-20 08:52 | 2.17162 | -75.36580 | 34012 ft | 498 kts | 311° |
| 2026-04-20 08:53 | 2.21833 | -75.41711 | 34017 ft | 499 kts | 311° |
| 2026-04-20 08:53 | 2.26501 | -75.46838 | 34015 ft | 498 kts | 311° |
| 2026-04-20 08:54 | 2.31134 | -75.51927 | 34025 ft | 499 kts | 311° |
| 2026-04-20 08:54 | 2.33470 | -75.54494 | 34304 ft | 498 kts | 311° |
| 2026-04-20 08:54 | 2.35799 | -75.57052 | 34654 ft | 496 kts | 311° |
| 2026-04-20 08:54 | 2.38125 | -75.59607 | 34955 ft | 495 kts | 311° |
| 2026-04-20 08:55 | 2.40441 | -75.62152 | 35306 ft | 493 kts | 311° |
| 2026-04-20 08:55 | 2.42683 | -75.64617 | 35636 ft | 491 kts | 311° |
| 2026-04-20 08:55 | 2.44986 | -75.67147 | 35844 ft | 493 kts | 311° |
| 2026-04-20 08:56 | 2.49560 | -75.72175 | 35991 ft | 495 kts | 311° |
| 2026-04-20 08:56 | 2.54032 | -75.77091 | 36003 ft | 491 kts | 311° |
| 2026-04-20 08:57 | 2.58566 | -75.82075 | 36040 ft | 489 kts | 312° |
| 2026-04-20 08:57 | 2.63085 | -75.87043 | 36043 ft | 489 kts | 311° |
| 2026-04-20 08:58 | 2.67544 | -75.91947 | 36066 ft | 489 kts | 312° |
| 2026-04-20 08:58 | 2.72129 | -75.96987 | 36094 ft | 490 kts | 311° |
| 2026-04-20 08:59 | 2.76693 | -76.02008 | 36086 ft | 491 kts | 311° |
| 2026-04-20 08:59 | 2.81265 | -76.07037 | 36093 ft | 492 kts | 311° |
| 2026-04-20 09:00 | 2.85905 | -76.12143 | 36100 ft | 493 kts | 311° |
| 2026-04-20 09:00 | 2.90509 | -76.17240 | 36099 ft | 494 kts | 311° |
| 2026-04-20 09:01 | 2.95091 | -76.22356 | 36084 ft | 493 kts | 311° |
| 2026-04-20 09:01 | 2.99609 | -76.27403 | 36063 ft | 493 kts | 311° |
| 2026-04-20 09:02 | 3.04192 | -76.32520 | 36067 ft | 493 kts | 311° |
| 2026-04-20 09:02 | 3.08678 | -76.37523 | 36048 ft | 492 kts | 311° |
| 2026-04-20 09:03 | 3.13250 | -76.42623 | 36025 ft | 492 kts | 311° |
| 2026-04-20 09:03 | 3.17817 | -76.47717 | 36031 ft | 491 kts | 311° |
| 2026-04-20 09:04 | 3.22384 | -76.52813 | 36024 ft | 491 kts | 310° |
| 2026-04-20 09:04 | 3.26953 | -76.57913 | 36022 ft | 492 kts | 310° |
| 2026-04-20 09:05 | 3.31529 | -76.63020 | 36023 ft | 493 kts | 310° |
| 2026-04-20 09:05 | 3.36108 | -76.68132 | 36018 ft | 493 kts | 310° |
| 2026-04-20 09:06 | 3.40659 | -76.73214 | 36011 ft | 494 kts | 310° |
| 2026-04-20 09:06 | 3.45246 | -76.78337 | 36006 ft | 494 kts | 310° |
| 2026-04-20 09:07 | 3.49776 | -76.83396 | 35988 ft | 494 kts | 310° |
| 2026-04-20 09:07 | 3.54296 | -76.88445 | 35968 ft | 494 kts | 311° |
| 2026-04-20 09:08 | 3.58894 | -76.93581 | 35953 ft | 494 kts | 311° |
| 2026-04-20 09:08 | 3.63485 | -76.98711 | 35934 ft | 494 kts | 311° |
| 2026-04-20 09:09 | 3.68035 | -77.03798 | 35924 ft | 495 kts | 311° |
| 2026-04-20 09:09 | 3.72635 | -77.08939 | 35912 ft | 495 kts | 311° |
| 2026-04-20 09:10 | 3.77236 | -77.14083 | 35916 ft | 495 kts | 311° |
| 2026-04-20 09:10 | 3.81832 | -77.19222 | 35916 ft | 495 kts | 311° |
| 2026-04-20 09:11 | 3.86400 | -77.24331 | 35913 ft | 494 kts | 311° |
| 2026-04-20 09:11 | 3.90989 | -77.29463 | 35915 ft | 494 kts | 311° |
| 2026-04-20 09:12 | 3.95564 | -77.34582 | 35912 ft | 493 kts | 311° |
| 2026-04-20 09:12 | 4.00130 | -77.39691 | 35911 ft | 492 kts | 311° |
| 2026-04-20 09:13 | 4.04693 | -77.44798 | 35918 ft | 491 kts | 311° |
| 2026-04-20 09:13 | 4.09253 | -77.49902 | 35910 ft | 491 kts | 311° |
| 2026-04-20 09:14 | 4.13777 | -77.54967 | 35917 ft | 491 kts | 311° |
| 2026-04-20 09:14 | 4.18331 | -77.60067 | 35916 ft | 491 kts | 311° |
| 2026-04-20 09:15 | 4.22827 | -77.65102 | 35914 ft | 491 kts | 311° |
| 2026-04-20 09:15 | 4.27388 | -77.70212 | 35917 ft | 492 kts | 311° |
| 2026-04-20 09:16 | 4.31960 | -77.75333 | 35914 ft | 493 kts | 311° |
| 2026-04-20 09:16 | 4.36540 | -77.80466 | 35916 ft | 494 kts | 311° |
| 2026-04-20 09:17 | 4.41060 | -77.85533 | 35913 ft | 494 kts | 311° |
| 2026-04-20 09:17 | 4.45563 | -77.90581 | 35913 ft | 494 kts | 311° |
| 2026-04-20 09:18 | 4.50145 | -77.95719 | 35914 ft | 494 kts | 311° |
| 2026-04-20 09:18 | 4.54730 | -78.00861 | 35909 ft | 494 kts | 311° |
| 2026-04-20 09:19 | 4.59257 | -78.05939 | 35912 ft | 493 kts | 311° |
| 2026-04-20 09:19 | 4.63825 | -78.11064 | 35914 ft | 493 kts | 311° |
| 2026-04-20 09:20 | 4.68391 | -78.16188 | 35913 ft | 492 kts | 311° |
| 2026-04-20 09:20 | 4.72954 | -78.21310 | 35913 ft | 492 kts | 311° |
| 2026-04-20 09:21 | 4.77513 | -78.26429 | 35913 ft | 492 kts | 311° |
| 2026-04-20 09:21 | 4.82022 | -78.31492 | 35911 ft | 492 kts | 311° |
| 2026-04-20 09:22 | 4.86578 | -78.36610 | 35916 ft | 492 kts | 310° |
| 2026-04-20 09:22 | 4.91105 | -78.41696 | 35907 ft | 492 kts | 310° |
| 2026-04-20 09:23 | 4.95689 | -78.46846 | 35912 ft | 492 kts | 310° |
| 2026-04-20 09:23 | 5.00215 | -78.51934 | 35913 ft | 492 kts | 310° |
| 2026-04-20 09:24 | 5.04773 | -78.57057 | 35913 ft | 492 kts | 310° |
| 2026-04-20 09:24 | 5.09328 | -78.62180 | 35915 ft | 492 kts | 310° |
| 2026-04-20 09:25 | 5.13883 | -78.67303 | 35911 ft | 492 kts | 310° |
| 2026-04-20 09:25 | 5.18386 | -78.72369 | 35910 ft | 492 kts | 310° |
| 2026-04-20 09:26 | 5.22887 | -78.77434 | 35913 ft | 492 kts | 310° |
| 2026-04-20 09:26 | 5.27434 | -78.82552 | 35912 ft | 491 kts | 310° |
| 2026-04-20 09:27 | 5.31980 | -78.87668 | 35912 ft | 490 kts | 310° |
| 2026-04-20 09:27 | 5.36514 | -78.92775 | 35911 ft | 489 kts | 310° |
| 2026-04-20 09:28 | 5.41014 | -78.97843 | 35908 ft | 489 kts | 310° |
| 2026-04-20 09:28 | 5.45545 | -79.02948 | 35911 ft | 488 kts | 310° |
| 2026-04-20 09:29 | 5.50009 | -79.07979 | 35915 ft | 488 kts | 310° |
| 2026-04-20 09:29 | 5.54502 | -79.13043 | 35916 ft | 488 kts | 310° |
| 2026-04-20 09:30 | 5.59020 | -79.18138 | 35910 ft | 488 kts | 310° |
| 2026-04-20 09:30 | 5.63469 | -79.23155 | 35913 ft | 488 kts | 310° |
| 2026-04-20 09:31 | 5.67926 | -79.28185 | 35914 ft | 488 kts | 310° |
| 2026-04-20 09:31 | 5.72439 | -79.33277 | 35923 ft | 488 kts | 310° |
| 2026-04-20 09:32 | 5.76992 | -79.38340 | 35914 ft | 488 kts | 311° |
| 2026-04-20 09:32 | 5.81587 | -79.43379 | 35910 ft | 489 kts | 311° |
| 2026-04-20 09:33 | 5.86169 | -79.48418 | 35922 ft | 489 kts | 311° |
| 2026-04-20 09:33 | 5.89977 | -79.52616 | 35918 ft | 489 kts | 311° |
| 2026-04-20 09:34 | 5.94560 | -79.57673 | 35918 ft | 489 kts | 311° |
| 2026-04-20 09:34 | 6.01368 | -79.65185 | 35922 ft | 489 kts | 311° |
| 2026-04-20 09:35 | 6.05953 | -79.70231 | 35918 ft | 489 kts | 311° |
| 2026-04-20 09:35 | 6.10509 | -79.75243 | 35921 ft | 488 kts | 311° |
| 2026-04-20 09:36 | 6.15030 | -79.80221 | 35921 ft | 488 kts | 311° |
| 2026-04-20 09:36 | 6.19604 | -79.85261 | 35920 ft | 488 kts | 311° |
| 2026-04-20 09:37 | 6.24179 | -79.90304 | 35919 ft | 488 kts | 311° |
| 2026-04-20 09:37 | 6.28752 | -79.95345 | 35918 ft | 488 kts | 311° |
| 2026-04-20 09:38 | 6.33272 | -80.00330 | 35928 ft | 488 kts | 311° |
| 2026-04-20 09:38 | 6.37818 | -80.05344 | 35917 ft | 488 kts | 311° |
| 2026-04-20 09:39 | 6.42334 | -80.10327 | 35920 ft | 488 kts | 311° |
| 2026-04-20 09:39 | 6.46908 | -80.15375 | 35918 ft | 488 kts | 311° |
| 2026-04-20 09:40 | 6.51415 | -80.20351 | 35918 ft | 487 kts | 311° |
| 2026-04-20 09:40 | 6.55981 | -80.25393 | 35918 ft | 487 kts | 311° |
| 2026-04-20 09:41 | 6.60550 | -80.30441 | 35916 ft | 487 kts | 311° |
| 2026-04-20 09:41 | 6.65104 | -80.35473 | 35915 ft | 486 kts | 311° |
| 2026-04-20 09:42 | 6.69632 | -80.40477 | 35915 ft | 486 kts | 311° |
| 2026-04-20 09:42 | 6.74186 | -80.45512 | 35921 ft | 486 kts | 311° |
| 2026-04-20 09:43 | 6.78737 | -80.50546 | 35915 ft | 486 kts | 311° |
| 2026-04-20 09:43 | 6.83300 | -80.55594 | 35916 ft | 486 kts | 311° |
| 2026-04-20 09:44 | 6.87912 | -80.60698 | 35914 ft | 486 kts | 311° |
| 2026-04-20 09:44 | 6.92439 | -80.65709 | 35915 ft | 486 kts | 311° |
| 2026-04-20 09:45 | 6.96991 | -80.70750 | 35917 ft | 487 kts | 311° |
| 2026-04-20 09:45 | 7.01543 | -80.75792 | 35917 ft | 487 kts | 311° |
| 2026-04-20 09:46 | 7.06101 | -80.80843 | 35923 ft | 487 kts | 311° |
| 2026-04-20 09:46 | 7.10651 | -80.85886 | 35923 ft | 487 kts | 311° |
| 2026-04-20 09:47 | 7.15214 | -80.90945 | 35923 ft | 487 kts | 311° |
| 2026-04-20 09:47 | 7.19745 | -80.95970 | 35917 ft | 487 kts | 311° |
| 2026-04-20 09:48 | 7.24300 | -81.01023 | 35923 ft | 487 kts | 311° |
| 2026-04-20 09:48 | 7.28857 | -81.06081 | 35917 ft | 487 kts | 311° |
| 2026-04-20 09:49 | 7.33406 | -81.11131 | 35917 ft | 487 kts | 311° |
| 2026-04-20 09:49 | 7.37933 | -81.16158 | 35917 ft | 487 kts | 311° |
| 2026-04-20 09:50 | 7.42398 | -81.21119 | 35916 ft | 487 kts | 311° |
| 2026-04-20 09:50 | 7.46945 | -81.26171 | 35912 ft | 487 kts | 311° |
| 2026-04-20 09:51 | 7.51492 | -81.31226 | 35917 ft | 487 kts | 311° |
| 2026-04-20 09:51 | 7.56037 | -81.36280 | 35917 ft | 487 kts | 311° |
| 2026-04-20 09:52 | 7.60585 | -81.41339 | 35923 ft | 487 kts | 311° |
| 2026-04-20 09:52 | 7.65113 | -81.46378 | 35914 ft | 487 kts | 311° |
| 2026-04-20 09:53 | 7.69602 | -81.51375 | 35920 ft | 487 kts | 311° |
| 2026-04-20 09:53 | 7.74146 | -81.56434 | 35920 ft | 487 kts | 311° |
| 2026-04-20 09:54 | 7.78691 | -81.61497 | 35920 ft | 487 kts | 311° |
| 2026-04-20 09:54 | 7.83239 | -81.66565 | 35917 ft | 487 kts | 311° |
| 2026-04-20 09:55 | 7.87725 | -81.71565 | 35920 ft | 487 kts | 311° |
| 2026-04-20 09:55 | 7.92270 | -81.76634 | 35919 ft | 488 kts | 312° |
| 2026-04-20 09:56 | 7.96802 | -81.81688 | 35915 ft | 488 kts | 312° |
| 2026-04-20 09:56 | 8.01299 | -81.86707 | 35916 ft | 488 kts | 312° |
| 2026-04-20 09:57 | 8.05829 | -81.91764 | 35915 ft | 489 kts | 312° |
| 2026-04-20 09:57 | 8.10393 | -81.96860 | 35907 ft | 490 kts | 312° |
| 2026-04-20 09:58 | 8.14901 | -82.01896 | 35915 ft | 489 kts | 312° |
| 2026-04-20 09:58 | 8.19469 | -82.07001 | 35919 ft | 490 kts | 312° |
| 2026-04-20 09:59 | 8.24008 | -82.12075 | 35912 ft | 489 kts | 312° |
| 2026-04-20 09:59 | 8.28540 | -82.17143 | 35930 ft | 489 kts | 312° |
| 2026-04-20 10:00 | 8.33043 | -82.22181 | 35927 ft | 489 kts | 312° |
| 2026-04-20 10:00 | 8.37483 | -82.27149 | 35937 ft | 488 kts | 312° |
| 2026-04-20 10:01 | 8.42095 | -82.32313 | 35950 ft | 489 kts | 312° |
| 2026-04-20 10:01 | 8.46585 | -82.37341 | 35950 ft | 488 kts | 312° |
| 2026-04-20 10:02 | 8.51139 | -82.42444 | 35943 ft | 489 kts | 313° |
| 2026-04-20 10:02 | 8.55688 | -82.47543 | 35948 ft | 489 kts | 313° |
| 2026-04-20 10:03 | 8.60184 | -82.52584 | 35972 ft | 489 kts | 313° |
| 2026-04-20 10:03 | 8.64615 | -82.57554 | 35970 ft | 489 kts | 313° |
| 2026-04-20 10:04 | 8.69168 | -82.62665 | 35971 ft | 490 kts | 313° |
| 2026-04-20 10:04 | 8.73729 | -82.67784 | 35998 ft | 490 kts | 313° |
| 2026-04-20 10:05 | 8.78303 | -82.72922 | 35996 ft | 491 kts | 313° |
| 2026-04-20 10:05 | 8.82809 | -82.77986 | 35993 ft | 491 kts | 313° |
| 2026-04-20 10:06 | 8.87368 | -82.83119 | 36033 ft | 490 kts | 313° |
| 2026-04-20 10:06 | 8.91864 | -82.88300 | 36007 ft | 489 kts | 312° |
| 2026-04-20 10:07 | 8.96249 | -82.93400 | 36009 ft | 488 kts | 312° |
| 2026-04-20 10:07 | 9.00710 | -82.98581 | 36009 ft | 488 kts | 312° |
| 2026-04-20 10:08 | 9.05166 | -83.03748 | 36011 ft | 487 kts | 313° |
| 2026-04-20 10:08 | 9.09566 | -83.08846 | 36014 ft | 486 kts | 313° |
| 2026-04-20 10:09 | 9.13937 | -83.13912 | 36021 ft | 487 kts | 313° |
| 2026-04-20 10:09 | 9.18333 | -83.19009 | 36020 ft | 487 kts | 313° |
| 2026-04-20 10:10 | 9.22795 | -83.24184 | 36012 ft | 488 kts | 313° |
| 2026-04-20 10:10 | 9.27198 | -83.29295 | 36012 ft | 488 kts | 313° |
| 2026-04-20 10:11 | 9.31606 | -83.34414 | 35994 ft | 488 kts | 313° |
| 2026-04-20 10:11 | 9.36007 | -83.39527 | 36021 ft | 487 kts | 313° |
| 2026-04-20 10:12 | 9.40461 | -83.44703 | 36020 ft | 487 kts | 313° |
| 2026-04-20 10:12 | 9.44910 | -83.49876 | 36024 ft | 487 kts | 313° |
| 2026-04-20 10:13 | 9.49363 | -83.55052 | 36036 ft | 487 kts | 313° |
| 2026-04-20 10:13 | 9.53726 | -83.60132 | 36046 ft | 486 kts | 313° |
| 2026-04-20 10:14 | 9.58176 | -83.65313 | 36033 ft | 487 kts | 313° |
| 2026-04-20 10:14 | 9.62532 | -83.70386 | 36034 ft | 487 kts | 313° |
| 2026-04-20 10:15 | 9.66976 | -83.75562 | 36042 ft | 487 kts | 313° |
| 2026-04-20 10:15 | 9.71419 | -83.80742 | 36046 ft | 486 kts | 313° |
| 2026-04-20 10:16 | 9.75865 | -83.85928 | 36043 ft | 487 kts | 313° |
| 2026-04-20 10:16 | 9.79564 | -83.90242 | 36038 ft | 487 kts | 313° |
| 2026-04-20 10:17 | 9.84723 | -83.96264 | 36032 ft | 487 kts | 313° |
| 2026-04-20 10:17 | 9.89167 | -84.01452 | 36034 ft | 487 kts | 313° |
| 2026-04-20 10:18 | 9.92801 | -84.05698 | 36036 ft | 487 kts | 313° |
| 2026-04-20 10:18 | 9.97184 | -84.10820 | 36019 ft | 487 kts | 313° |
| 2026-04-20 10:19 | 10.01568 | -84.15946 | 36074 ft | 487 kts | 313° |
| 2026-04-20 10:19 | 10.06011 | -84.21142 | 36074 ft | 487 kts | 313° |
| 2026-04-20 10:20 | 10.10462 | -84.26352 | 36065 ft | 487 kts | 313° |
| 2026-04-20 10:20 | 10.14899 | -84.31547 | 36046 ft | 487 kts | 313° |
| 2026-04-20 10:21 | 10.19310 | -84.36712 | 36016 ft | 487 kts | 313° |
| 2026-04-20 10:21 | 10.23748 | -84.41915 | 35991 ft | 487 kts | 313° |
| 2026-04-20 10:22 | 10.28185 | -84.47116 | 35988 ft | 487 kts | 313° |
| 2026-04-20 10:22 | 10.32625 | -84.52324 | 35980 ft | 487 kts | 313° |
| 2026-04-20 10:23 | 10.37063 | -84.57532 | 35982 ft | 487 kts | 313° |
| 2026-04-20 10:23 | 10.41354 | -84.62570 | 35985 ft | 487 kts | 313° |
| 2026-04-20 10:24 | 10.45789 | -84.67779 | 35973 ft | 487 kts | 313° |
| 2026-04-20 10:24 | 10.50231 | -84.73000 | 35973 ft | 488 kts | 313° |
| 2026-04-20 10:25 | 10.54668 | -84.78216 | 35972 ft | 487 kts | 312° |
| 2026-04-20 10:25 | 10.59098 | -84.83428 | 35971 ft | 487 kts | 312° |
| 2026-04-20 10:26 | 10.63523 | -84.88635 | 35971 ft | 486 kts | 312° |
| 2026-04-20 10:26 | 10.67915 | -84.93807 | 35972 ft | 486 kts | 312° |
| 2026-04-20 10:27 | 10.72334 | -84.99013 | 35967 ft | 485 kts | 312° |
| 2026-04-20 10:27 | 10.76746 | -85.04212 | 35972 ft | 485 kts | 312° |
| 2026-04-20 10:28 | 10.81150 | -85.09407 | 35973 ft | 485 kts | 313° |
| 2026-04-20 10:28 | 10.85531 | -85.14575 | 35970 ft | 485 kts | 313° |
| 2026-04-20 10:29 | 10.89888 | -85.19716 | 35970 ft | 485 kts | 313° |
| 2026-04-20 10:29 | 10.94296 | -85.24923 | 35971 ft | 485 kts | 313° |
| 2026-04-20 10:30 | 10.98712 | -85.30141 | 35959 ft | 486 kts | 313° |
| 2026-04-20 10:30 | 11.03127 | -85.35360 | 35959 ft | 486 kts | 314° |
| 2026-04-20 10:31 | 11.07457 | -85.40481 | 35959 ft | 486 kts | 313° |
| 2026-04-20 10:31 | 11.11865 | -85.45698 | 35956 ft | 486 kts | 312° |
| 2026-04-20 10:32 | 11.16277 | -85.50923 | 35949 ft | 486 kts | 312° |
| 2026-04-20 10:32 | 11.20662 | -85.56059 | 35950 ft | 486 kts | 313° |
| 2026-04-20 10:33 | 11.25120 | -85.61200 | 35942 ft | 486 kts | 313° |
| 2026-04-20 10:33 | 11.29571 | -85.66334 | 35939 ft | 485 kts | 313° |
| 2026-04-20 10:34 | 11.34029 | -85.71491 | 35942 ft | 484 kts | 313° |
| 2026-04-20 10:35 | 11.40657 | -85.79176 | 35939 ft | 484 kts | 313° |
| 2026-04-20 10:35 | 11.45020 | -85.84238 | 35943 ft | 484 kts | 313° |
| 2026-04-20 10:36 | 11.49461 | -85.89393 | 35942 ft | 484 kts | 313° |
| 2026-04-20 10:36 | 11.53902 | -85.94551 | 35939 ft | 484 kts | 313° |
| 2026-04-20 10:37 | 11.58346 | -85.99714 | 35940 ft | 484 kts | 313° |
| 2026-04-20 10:37 | 11.62784 | -86.04874 | 35942 ft | 484 kts | 313° |
| 2026-04-20 10:38 | 11.67166 | -86.09971 | 35944 ft | 484 kts | 313° |
| 2026-04-20 10:38 | 11.71581 | -86.15109 | 35944 ft | 483 kts | 313° |
| 2026-04-20 10:39 | 11.75987 | -86.20238 | 35944 ft | 483 kts | 312° |
| 2026-04-20 10:39 | 11.80325 | -86.25293 | 35947 ft | 483 kts | 313° |
| 2026-04-20 10:40 | 11.84751 | -86.30453 | 35949 ft | 482 kts | 313° |
| 2026-04-20 10:40 | 11.89172 | -86.35609 | 35947 ft | 482 kts | 312° |
| 2026-04-20 10:41 | 11.93594 | -86.40767 | 35944 ft | 483 kts | 312° |
| 2026-04-20 10:41 | 11.98021 | -86.45936 | 35947 ft | 483 kts | 313° |
| 2026-04-20 10:42 | 12.02393 | -86.51044 | 35941 ft | 483 kts | 312° |
| 2026-04-20 10:42 | 12.06792 | -86.56184 | 35944 ft | 482 kts | 312° |
| 2026-04-20 10:43 | 12.11216 | -86.61358 | 35940 ft | 482 kts | 312° |
| 2026-04-20 10:43 | 12.15505 | -86.66377 | 35944 ft | 481 kts | 312° |
| 2026-04-20 10:44 | 12.19920 | -86.71544 | 35945 ft | 481 kts | 311° |
| 2026-04-20 10:44 | 12.24234 | -86.76597 | 35946 ft | 480 kts | 311° |
| 2026-04-20 10:45 | 12.28624 | -86.81742 | 35953 ft | 480 kts | 312° |
| 2026-04-20 10:45 | 12.33021 | -86.86898 | 35959 ft | 480 kts | 312° |
| 2026-04-20 10:46 | 12.37414 | -86.92051 | 35956 ft | 480 kts | 311° |
| 2026-04-20 10:46 | 12.41808 | -86.97210 | 35958 ft | 480 kts | 311° |
| 2026-04-20 10:47 | 12.46172 | -87.02335 | 35963 ft | 481 kts | 311° |
| 2026-04-20 10:47 | 12.50571 | -87.07505 | 35975 ft | 481 kts | 311° |
| 2026-04-20 10:48 | 12.54969 | -87.12677 | 35963 ft | 482 kts | 311° |
| 2026-04-20 10:48 | 12.59376 | -87.17861 | 35964 ft | 482 kts | 311° |
| 2026-04-20 10:49 | 12.63782 | -87.23049 | 35974 ft | 482 kts | 311° |
| 2026-04-20 10:49 | 12.68134 | -87.28174 | 35964 ft | 482 kts | 311° |
| 2026-04-20 10:50 | 12.72537 | -87.33363 | 35963 ft | 482 kts | 311° |
| 2026-04-20 10:50 | 12.76853 | -87.38453 | 35974 ft | 482 kts | 311° |
| 2026-04-20 10:51 | 12.81249 | -87.43639 | 35965 ft | 482 kts | 311° |
| 2026-04-20 10:51 | 12.85594 | -87.48769 | 35963 ft | 482 kts | 311° |
| 2026-04-20 10:52 | 12.89936 | -87.53898 | 35963 ft | 482 kts | 311° |
| 2026-04-20 10:52 | 12.94335 | -87.59098 | 35963 ft | 482 kts | 311° |
| 2026-04-20 10:53 | 12.98660 | -87.64212 | 35960 ft | 482 kts | 311° |
| 2026-04-20 10:53 | 13.03000 | -87.69348 | 35962 ft | 482 kts | 311° |
| 2026-04-20 10:54 | 13.07396 | -87.74553 | 35963 ft | 482 kts | 311° |
| 2026-04-20 10:54 | 13.11787 | -87.79756 | 35965 ft | 483 kts | 311° |
| 2026-04-20 10:55 | 13.16182 | -87.84965 | 35966 ft | 482 kts | 311° |
| 2026-04-20 10:55 | 13.20576 | -87.90176 | 35954 ft | 482 kts | 311° |
| 2026-04-20 10:56 | 13.24966 | -87.95387 | 35960 ft | 482 kts | 311° |
| 2026-04-20 10:56 | 13.29264 | -88.00491 | 35960 ft | 481 kts | 311° |
| 2026-04-20 10:57 | 13.33645 | -88.05697 | 35952 ft | 481 kts | 311° |
| 2026-04-20 10:57 | 13.38023 | -88.10903 | 35961 ft | 481 kts | 311° |
| 2026-04-20 10:58 | 13.42351 | -88.16051 | 35962 ft | 481 kts | 311° |
| 2026-04-20 10:58 | 13.46724 | -88.21257 | 35959 ft | 481 kts | 311° |
| 2026-04-20 10:59 | 13.51096 | -88.26464 | 35976 ft | 481 kts | 311° |
| 2026-04-20 10:59 | 13.55457 | -88.31662 | 35972 ft | 480 kts | 311° |
| 2026-04-20 11:00 | 13.59758 | -88.36791 | 35959 ft | 479 kts | 311° |
| 2026-04-20 11:00 | 13.64014 | -88.41871 | 35977 ft | 478 kts | 311° |
| 2026-04-20 11:01 | 13.68322 | -88.47015 | 35980 ft | 477 kts | 311° |
| 2026-04-20 11:01 | 13.72512 | -88.52020 | 35967 ft | 477 kts | 311° |
| 2026-04-20 11:02 | 13.76841 | -88.57196 | 35963 ft | 476 kts | 311° |
| 2026-04-20 11:02 | 13.81168 | -88.62371 | 35975 ft | 476 kts | 310° |
| 2026-04-20 11:03 | 13.85436 | -88.67480 | 35965 ft | 476 kts | 310° |
| 2026-04-20 11:03 | 13.89756 | -88.72653 | 35968 ft | 476 kts | 310° |
| 2026-04-20 11:04 | 13.94073 | -88.77828 | 35963 ft | 476 kts | 310° |
| 2026-04-20 11:04 | 13.98366 | -88.82976 | 35962 ft | 476 kts | 310° |
| 2026-04-20 11:05 | 14.02630 | -88.88093 | 35964 ft | 476 kts | 310° |
| 2026-04-20 11:05 | 14.06891 | -88.93209 | 35971 ft | 476 kts | 310° |
| 2026-04-20 11:06 | 14.11190 | -88.98374 | 35993 ft | 477 kts | 310° |
| 2026-04-20 11:06 | 14.15469 | -89.03518 | 35995 ft | 478 kts | 310° |
| 2026-04-20 11:07 | 14.19001 | -89.07767 | 35997 ft | 478 kts | 310° |
| 2026-04-20 11:07 | 14.24002 | -89.13786 | 36040 ft | 477 kts | 310° |
| 2026-04-20 11:08 | 14.27587 | -89.18104 | 36028 ft | 476 kts | 310° |
| 2026-04-20 11:08 | 14.32472 | -89.23992 | 36038 ft | 474 kts | 310° |
| 2026-04-20 11:09 | 14.35986 | -89.28230 | 36060 ft | 473 kts | 310° |
| 2026-04-20 11:09 | 14.40261 | -89.33389 | 36064 ft | 472 kts | 310° |
| 2026-04-20 11:10 | 14.44524 | -89.38536 | 36061 ft | 472 kts | 310° |
| 2026-04-20 11:10 | 14.48793 | -89.43693 | 36067 ft | 473 kts | 310° |
| 2026-04-20 11:11 | 14.53066 | -89.48859 | 36085 ft | 474 kts | 310° |
| 2026-04-20 11:11 | 14.57341 | -89.54032 | 36085 ft | 474 kts | 310° |
| 2026-04-20 11:12 | 14.61576 | -89.59158 | 36106 ft | 474 kts | 310° |
| 2026-04-20 11:12 | 14.65832 | -89.64314 | 36105 ft | 475 kts | 310° |
| 2026-04-20 11:13 | 14.70123 | -89.69515 | 36134 ft | 475 kts | 310° |
| 2026-04-20 11:13 | 14.74347 | -89.74640 | 36133 ft | 475 kts | 310° |
| 2026-04-20 11:14 | 14.78577 | -89.79773 | 36133 ft | 474 kts | 310° |
| 2026-04-20 11:14 | 14.82856 | -89.84970 | 36134 ft | 474 kts | 310° |
| 2026-04-20 11:15 | 14.87133 | -89.90169 | 36134 ft | 474 kts | 310° |
| 2026-04-20 11:15 | 14.91347 | -89.95293 | 36129 ft | 474 kts | 310° |
| 2026-04-20 11:16 | 14.95591 | -90.00458 | 36162 ft | 474 kts | 310° |
| 2026-04-20 11:16 | 14.99861 | -90.05660 | 36173 ft | 474 kts | 310° |
| 2026-04-20 11:17 | 15.04126 | -90.10857 | 36174 ft | 474 kts | 310° |
| 2026-04-20 11:17 | 15.08402 | -90.16071 | 36186 ft | 475 kts | 310° |
| 2026-04-20 11:18 | 15.12674 | -90.21284 | 36184 ft | 475 kts | 310° |
| 2026-04-20 11:18 | 15.16951 | -90.26507 | 36191 ft | 475 kts | 310° |
| 2026-04-20 11:19 | 15.21174 | -90.31667 | 36205 ft | 475 kts | 310° |
| 2026-04-20 11:19 | 15.25418 | -90.36857 | 36214 ft | 475 kts | 310° |
| 2026-04-20 11:20 | 15.29695 | -90.42091 | 36213 ft | 475 kts | 309° |
| 2026-04-20 11:20 | 15.33972 | -90.47327 | 36219 ft | 475 kts | 309° |
| 2026-04-20 11:21 | 15.38240 | -90.52557 | 36205 ft | 475 kts | 309° |
| 2026-04-20 11:21 | 15.42503 | -90.57785 | 36206 ft | 474 kts | 309° |
| 2026-04-20 11:22 | 15.46713 | -90.62950 | 36202 ft | 474 kts | 309° |
| 2026-04-20 11:22 | 15.50901 | -90.68093 | 36185 ft | 474 kts | 309° |
| 2026-04-20 11:23 | 15.55154 | -90.73319 | 36181 ft | 474 kts | 309° |
| 2026-04-20 11:23 | 15.59348 | -90.78475 | 36178 ft | 474 kts | 309° |
| 2026-04-20 11:24 | 15.63600 | -90.83708 | 36189 ft | 475 kts | 309° |
| 2026-04-20 11:24 | 15.67861 | -90.88955 | 36165 ft | 475 kts | 309° |
| 2026-04-20 11:25 | 15.72117 | -90.94199 | 36175 ft | 475 kts | 309° |
| 2026-04-20 11:25 | 15.76374 | -90.99448 | 36178 ft | 475 kts | 309° |
| 2026-04-20 11:26 | 15.80630 | -91.04701 | 36147 ft | 475 kts | 309° |
| 2026-04-20 11:26 | 15.84888 | -91.09959 | 36166 ft | 475 kts | 309° |
| 2026-04-20 11:27 | 15.88996 | -91.15035 | 36165 ft | 474 kts | 309° |
| 2026-04-20 11:27 | 15.93269 | -91.20319 | 36129 ft | 475 kts | 309° |
| 2026-04-20 11:28 | 15.97465 | -91.25513 | 36143 ft | 475 kts | 309° |
| 2026-04-20 11:28 | 16.01719 | -91.30783 | 36153 ft | 475 kts | 309° |
| 2026-04-20 11:29 | 16.05962 | -91.36041 | 36143 ft | 475 kts | 309° |
| 2026-04-20 11:29 | 16.10138 | -91.41234 | 36131 ft | 474 kts | 309° |
| 2026-04-20 11:30 | 16.14316 | -91.46471 | 36127 ft | 473 kts | 308° |
| 2026-04-20 11:30 | 16.18485 | -91.51708 | 36131 ft | 472 kts | 308° |
| 2026-04-20 11:31 | 16.22666 | -91.56959 | 36130 ft | 470 kts | 308° |
| 2026-04-20 11:31 | 16.26838 | -91.62202 | 36125 ft | 470 kts | 308° |
| 2026-04-20 11:32 | 16.31002 | -91.67437 | 36127 ft | 468 kts | 308° |
| 2026-04-20 11:32 | 16.35094 | -91.72585 | 36131 ft | 468 kts | 308° |
| 2026-04-20 11:33 | 16.39243 | -91.77810 | 36136 ft | 468 kts | 308° |
| 2026-04-20 11:33 | 16.43350 | -91.82985 | 36134 ft | 470 kts | 308° |
| 2026-04-20 11:34 | 16.47514 | -91.88234 | 36134 ft | 470 kts | 308° |
| 2026-04-20 11:34 | 16.51582 | -91.93368 | 36138 ft | 471 kts | 308° |
| 2026-04-20 11:35 | 16.55762 | -91.98645 | 36138 ft | 472 kts | 308° |
| 2026-04-20 11:35 | 16.59915 | -92.03893 | 36137 ft | 472 kts | 308° |
| 2026-04-20 11:36 | 16.64041 | -92.09112 | 36144 ft | 472 kts | 308° |
| 2026-04-20 11:36 | 16.68221 | -92.14403 | 36139 ft | 472 kts | 308° |
| 2026-04-20 11:37 | 16.72397 | -92.19691 | 36139 ft | 472 kts | 308° |
| 2026-04-20 11:37 | 16.78628 | -92.27590 | 36138 ft | 472 kts | 308° |
| 2026-04-20 11:38 | 16.82747 | -92.32818 | 36139 ft | 472 kts | 308° |
| 2026-04-20 11:38 | 16.86915 | -92.38111 | 36140 ft | 472 kts | 308° |
| 2026-04-20 11:39 | 16.91029 | -92.43340 | 36130 ft | 472 kts | 308° |
| 2026-04-20 11:39 | 16.95191 | -92.48633 | 36132 ft | 472 kts | 308° |
| 2026-04-20 11:40 | 16.99360 | -92.53940 | 36132 ft | 473 kts | 308° |
| 2026-04-20 11:40 | 17.03540 | -92.59264 | 36114 ft | 473 kts | 308° |
| 2026-04-20 11:41 | 17.07679 | -92.64540 | 36127 ft | 472 kts | 308° |
| 2026-04-20 11:41 | 17.11840 | -92.69849 | 36114 ft | 472 kts | 308° |
| 2026-04-20 11:42 | 17.16007 | -92.75168 | 36110 ft | 471 kts | 308° |
| 2026-04-20 11:42 | 17.20048 | -92.80333 | 36103 ft | 470 kts | 308° |
| 2026-04-20 11:43 | 17.24161 | -92.85593 | 36099 ft | 470 kts | 308° |
| 2026-04-20 11:43 | 17.28242 | -92.90815 | 36101 ft | 469 kts | 308° |
| 2026-04-20 11:44 | 17.32375 | -92.96109 | 36089 ft | 470 kts | 308° |
| 2026-04-20 11:44 | 17.36514 | -93.01414 | 36085 ft | 470 kts | 308° |
| 2026-04-20 11:45 | 17.40651 | -93.06723 | 36077 ft | 470 kts | 308° |
| 2026-04-20 11:45 | 17.44741 | -93.11972 | 36072 ft | 472 kts | 307° |
| 2026-04-20 11:46 | 17.48900 | -93.17315 | 36072 ft | 474 kts | 307° |
| 2026-04-20 11:46 | 17.52937 | -93.22507 | 36070 ft | 475 kts | 307° |
| 2026-04-20 11:47 | 17.57115 | -93.27883 | 36074 ft | 476 kts | 307° |
| 2026-04-20 11:47 | 17.61294 | -93.33265 | 36059 ft | 476 kts | 307° |
| 2026-04-20 11:48 | 17.65472 | -93.38650 | 36063 ft | 476 kts | 307° |
| 2026-04-20 11:48 | 17.69644 | -93.44032 | 36065 ft | 475 kts | 307° |
| 2026-04-20 11:49 | 17.73807 | -93.49406 | 36066 ft | 474 kts | 307° |
| 2026-04-20 11:49 | 17.77966 | -93.54780 | 36066 ft | 473 kts | 307° |
| 2026-04-20 11:50 | 17.82113 | -93.60143 | 36059 ft | 473 kts | 307° |
| 2026-04-20 11:50 | 17.86232 | -93.65475 | 36064 ft | 472 kts | 307° |
| 2026-04-20 11:51 | 17.90366 | -93.70829 | 36064 ft | 472 kts | 307° |
| 2026-04-20 11:51 | 17.94427 | -93.76093 | 36064 ft | 472 kts | 307° |
| 2026-04-20 11:52 | 17.98558 | -93.81453 | 36066 ft | 472 kts | 307° |
| 2026-04-20 11:52 | 18.02593 | -93.86692 | 36067 ft | 473 kts | 307° |
| 2026-04-20 11:53 | 18.06682 | -93.92006 | 36067 ft | 474 kts | 307° |
| 2026-04-20 11:53 | 18.10841 | -93.97415 | 36074 ft | 475 kts | 307° |
| 2026-04-20 11:54 | 18.14299 | -94.01916 | 36076 ft | 476 kts | 307° |
| 2026-04-20 11:54 | 18.18465 | -94.07342 | 36075 ft | 477 kts | 307° |
| 2026-04-20 11:55 | 18.22636 | -94.12779 | 36075 ft | 477 kts | 307° |
| 2026-04-20 11:55 | 18.26752 | -94.18150 | 36078 ft | 477 kts | 307° |
| 2026-04-20 11:56 | 18.30793 | -94.23427 | 36085 ft | 481 kts | 307° |
| 2026-04-20 11:56 | 18.35005 | -94.28935 | 36090 ft | 486 kts | 307° |
| 2026-04-20 11:57 | 18.39177 | -94.34387 | 36068 ft | 471 kts | 307° |
| 2026-04-20 11:57 | 18.43275 | -94.39751 | 36077 ft | 469 kts | 306° |
| 2026-04-20 11:58 | 18.47359 | -94.45105 | 36084 ft | 469 kts | 306° |
| 2026-04-20 11:58 | 18.51451 | -94.50473 | 36091 ft | 470 kts | 306° |
| 2026-04-20 11:59 | 18.55456 | -94.55731 | 36089 ft | 472 kts | 306° |
| 2026-04-20 11:59 | 18.59580 | -94.61148 | 36086 ft | 474 kts | 306° |
| 2026-04-20 12:00 | 18.63688 | -94.66549 | 36087 ft | 476 kts | 306° |
| 2026-04-20 12:00 | 18.67775 | -94.71927 | 36089 ft | 477 kts | 306° |
| 2026-04-20 12:01 | 18.71928 | -94.77396 | 36101 ft | 478 kts | 306° |
| 2026-04-20 12:01 | 18.76028 | -94.82800 | 36101 ft | 477 kts | 306° |
| 2026-04-20 12:02 | 18.80112 | -94.88188 | 36095 ft | 475 kts | 306° |
| 2026-04-20 12:02 | 18.84234 | -94.93631 | 36094 ft | 473 kts | 306° |
| 2026-04-20 12:03 | 18.88335 | -94.99051 | 36085 ft | 472 kts | 306° |
| 2026-04-20 12:03 | 18.92383 | -95.04408 | 36085 ft | 471 kts | 306° |
| 2026-04-20 12:04 | 18.96455 | -95.09799 | 36094 ft | 472 kts | 306° |
| 2026-04-20 12:04 | 19.00551 | -95.15227 | 36096 ft | 472 kts | 306° |
| 2026-04-20 12:05 | 19.04648 | -95.20658 | 36095 ft | 473 kts | 306° |
| 2026-04-20 12:05 | 19.08749 | -95.26100 | 36102 ft | 473 kts | 306° |
| 2026-04-20 12:06 | 19.12850 | -95.31547 | 36095 ft | 473 kts | 306° |
| 2026-04-20 12:06 | 19.16950 | -95.36999 | 36093 ft | 472 kts | 306° |
| 2026-04-20 12:07 | 19.21009 | -95.42402 | 36094 ft | 472 kts | 306° |
| 2026-04-20 12:07 | 19.25091 | -95.47840 | 36103 ft | 472 kts | 306° |
| 2026-04-20 12:08 | 19.29184 | -95.53297 | 36101 ft | 472 kts | 306° |
| 2026-04-20 12:08 | 19.33214 | -95.58676 | 36109 ft | 472 kts | 306° |
| 2026-04-20 12:09 | 19.37293 | -95.64124 | 36108 ft | 472 kts | 305° |
| 2026-04-20 12:09 | 19.41373 | -95.69579 | 36107 ft | 471 kts | 305° |
| 2026-04-20 12:10 | 19.45415 | -95.74988 | 36101 ft | 471 kts | 305° |
| 2026-04-20 12:10 | 19.49481 | -95.80433 | 36108 ft | 470 kts | 305° |
| 2026-04-20 12:11 | 19.53550 | -95.85888 | 36110 ft | 470 kts | 305° |
| 2026-04-20 12:11 | 19.57597 | -95.91318 | 36111 ft | 470 kts | 305° |
| 2026-04-20 12:12 | 19.61628 | -95.96732 | 36120 ft | 470 kts | 305° |
| 2026-04-20 12:12 | 19.65678 | -96.02177 | 36115 ft | 470 kts | 305° |
| 2026-04-20 12:13 | 19.69670 | -96.07547 | 36130 ft | 470 kts | 305° |
| 2026-04-20 12:13 | 19.73714 | -96.12993 | 36125 ft | 469 kts | 304° |
| 2026-04-20 12:14 | 19.77747 | -96.18428 | 36120 ft | 469 kts | 304° |
| 2026-04-20 12:14 | 19.81778 | -96.23867 | 36118 ft | 468 kts | 304° |
| 2026-04-20 12:15 | 19.85799 | -96.29296 | 36124 ft | 467 kts | 304° |
| 2026-04-20 12:15 | 19.89764 | -96.34655 | 36136 ft | 467 kts | 304° |
| 2026-04-20 12:16 | 19.93776 | -96.40083 | 36140 ft | 467 kts | 304° |
| 2026-04-20 12:16 | 19.97784 | -96.45510 | 36143 ft | 467 kts | 304° |
| 2026-04-20 12:17 | 20.01732 | -96.50862 | 36154 ft | 467 kts | 304° |
| 2026-04-20 12:17 | 20.05739 | -96.56298 | 36147 ft | 467 kts | 304° |
| 2026-04-20 12:18 | 20.09738 | -96.61727 | 36157 ft | 466 kts | 304° |
| 2026-04-20 12:18 | 20.13730 | -96.67155 | 36154 ft | 465 kts | 304° |
| 2026-04-20 12:19 | 20.17717 | -96.72578 | 36154 ft | 465 kts | 304° |
| 2026-04-20 12:19 | 20.21933 | -96.77822 | 36162 ft | 466 kts | 309° |
| 2026-04-20 12:20 | 20.26371 | -96.82865 | 36148 ft | 467 kts | 309° |
| 2026-04-20 12:20 | 20.30784 | -96.87872 | 36151 ft | 467 kts | 309° |
| 2026-04-20 12:21 | 20.35209 | -96.92928 | 36155 ft | 466 kts | 309° |
| 2026-04-20 12:21 | 20.39620 | -96.97989 | 36146 ft | 465 kts | 308° |
| 2026-04-20 12:22 | 20.44015 | -97.03040 | 36157 ft | 464 kts | 308° |
| 2026-04-20 12:22 | 20.48344 | -97.08020 | 36153 ft | 463 kts | 308° |
| 2026-04-20 12:23 | 20.52719 | -97.13056 | 36156 ft | 462 kts | 308° |
| 2026-04-20 12:23 | 20.57090 | -97.18092 | 36162 ft | 462 kts | 308° |
| 2026-04-20 12:24 | 20.61455 | -97.23127 | 36153 ft | 462 kts | 308° |
| 2026-04-20 12:24 | 20.65826 | -97.28171 | 36171 ft | 463 kts | 308° |
| 2026-04-20 12:25 | 20.70200 | -97.33224 | 36160 ft | 463 kts | 308° |
| 2026-04-20 12:25 | 20.74568 | -97.38274 | 36156 ft | 462 kts | 308° |
| 2026-04-20 12:26 | 20.78928 | -97.43321 | 36158 ft | 462 kts | 308° |
| 2026-04-20 12:26 | 20.83282 | -97.48363 | 36157 ft | 461 kts | 308° |
| 2026-04-20 12:27 | 20.87579 | -97.53345 | 36161 ft | 461 kts | 308° |
| 2026-04-20 12:27 | 20.91931 | -97.58396 | 36162 ft | 461 kts | 308° |
| 2026-04-20 12:28 | 20.96246 | -97.63409 | 36161 ft | 461 kts | 308° |
| 2026-04-20 12:28 | 21.00603 | -97.68474 | 36166 ft | 461 kts | 308° |
| 2026-04-20 12:29 | 21.04950 | -97.73533 | 36160 ft | 461 kts | 308° |
| 2026-04-20 12:29 | 21.09236 | -97.78524 | 36165 ft | 461 kts | 308° |
| 2026-04-20 12:30 | 21.13517 | -97.83515 | 36168 ft | 460 kts | 308° |
| 2026-04-20 12:30 | 21.17826 | -97.88543 | 36168 ft | 460 kts | 308° |
| 2026-04-20 12:31 | 21.22160 | -97.93606 | 36166 ft | 460 kts | 308° |
| 2026-04-20 12:31 | 21.26492 | -97.98671 | 36164 ft | 461 kts | 308° |
| 2026-04-20 12:32 | 21.30828 | -98.03745 | 36162 ft | 461 kts | 307° |
| 2026-04-20 12:32 | 21.35159 | -98.08818 | 36164 ft | 461 kts | 307° |
| 2026-04-20 12:33 | 21.39428 | -98.13822 | 36162 ft | 461 kts | 307° |
| 2026-04-20 12:33 | 21.43696 | -98.18831 | 36161 ft | 461 kts | 307° |
| 2026-04-20 12:34 | 21.48010 | -98.23898 | 36168 ft | 460 kts | 307° |
| 2026-04-20 12:34 | 21.52314 | -98.28958 | 36166 ft | 461 kts | 307° |
| 2026-04-20 12:35 | 21.56635 | -98.34043 | 36166 ft | 461 kts | 307° |
| 2026-04-20 12:35 | 21.60907 | -98.39076 | 36177 ft | 461 kts | 307° |
| 2026-04-20 12:36 | 21.65167 | -98.44098 | 36166 ft | 459 kts | 307° |
| 2026-04-20 12:36 | 21.69464 | -98.49168 | 36167 ft | 458 kts | 307° |
| 2026-04-20 12:37 | 21.73751 | -98.54233 | 36168 ft | 457 kts | 307° |
| 2026-04-20 12:37 | 21.78002 | -98.59259 | 36168 ft | 456 kts | 307° |
| 2026-04-20 12:38 | 21.82276 | -98.64319 | 36171 ft | 456 kts | 307° |
| 2026-04-20 12:38 | 21.86470 | -98.69287 | 36172 ft | 456 kts | 307° |
| 2026-04-20 12:39 | 21.92874 | -98.76884 | 36181 ft | 457 kts | 306° |
| 2026-04-20 12:40 | 21.97156 | -98.81969 | 36173 ft | 458 kts | 306° |
| 2026-04-20 12:40 | 22.01429 | -98.87049 | 36176 ft | 457 kts | 306° |
| 2026-04-20 12:41 | 22.05660 | -98.92082 | 36182 ft | 457 kts | 306° |
| 2026-04-20 12:41 | 22.09209 | -98.96309 | 36180 ft | 458 kts | 306° |
| 2026-04-20 12:42 | 22.14127 | -99.02171 | 36181 ft | 458 kts | 306° |
| 2026-04-20 12:42 | 22.18396 | -99.07265 | 36175 ft | 458 kts | 306° |
| 2026-04-20 12:43 | 22.21945 | -99.11504 | 36193 ft | 458 kts | 306° |
| 2026-04-20 12:43 | 22.26213 | -99.16606 | 36186 ft | 458 kts | 306° |
| 2026-04-20 12:44 | 22.30482 | -99.21714 | 36187 ft | 458 kts | 306° |
| 2026-04-20 12:44 | 22.34750 | -99.26828 | 36185 ft | 458 kts | 306° |
| 2026-04-20 12:45 | 22.38957 | -99.31872 | 36190 ft | 457 kts | 306° |
| 2026-04-20 12:45 | 22.43207 | -99.36974 | 36191 ft | 456 kts | 306° |
| 2026-04-20 12:46 | 22.47397 | -99.42007 | 36205 ft | 456 kts | 306° |
| 2026-04-20 12:46 | 22.51643 | -99.47113 | 36225 ft | 456 kts | 306° |
| 2026-04-20 12:47 | 22.55876 | -99.52201 | 36200 ft | 453 kts | 305° |
| 2026-04-20 12:47 | 22.60092 | -99.57274 | 36201 ft | 453 kts | 305° |
| 2026-04-20 12:48 | 22.64308 | -99.62359 | 36199 ft | 453 kts | 305° |
| 2026-04-20 12:48 | 22.68490 | -99.67407 | 36209 ft | 454 kts | 305° |
| 2026-04-20 12:49 | 22.72710 | -99.72506 | 36201 ft | 455 kts | 305° |
| 2026-04-20 12:49 | 22.76933 | -99.77612 | 36204 ft | 455 kts | 305° |
| 2026-04-20 12:50 | 22.81109 | -99.82666 | 36223 ft | 455 kts | 305° |
| 2026-04-20 12:50 | 22.85389 | -99.87850 | 36213 ft | 455 kts | 305° |
| 2026-04-20 12:51 | 22.89604 | -99.92961 | 36204 ft | 455 kts | 305° |
| 2026-04-20 12:51 | 22.93820 | -99.98080 | 36217 ft | 454 kts | 305° |
| 2026-04-20 12:52 | 22.98023 | -100.03187 | 36220 ft | 453 kts | 304° |
| 2026-04-20 12:52 | 23.02221 | -100.08295 | 36212 ft | 453 kts | 304° |
| 2026-04-20 12:53 | 23.06420 | -100.13407 | 36214 ft | 453 kts | 304° |
| 2026-04-20 12:53 | 23.10588 | -100.18488 | 36234 ft | 453 kts | 304° |
| 2026-04-20 12:54 | 23.14783 | -100.23607 | 36213 ft | 453 kts | 304° |
| 2026-04-20 12:54 | 23.18975 | -100.28728 | 36210 ft | 453 kts | 304° |
| 2026-04-20 12:55 | 23.23153 | -100.33835 | 36213 ft | 452 kts | 304° |
| 2026-04-20 12:55 | 23.27335 | -100.38954 | 36208 ft | 453 kts | 304° |
| 2026-04-20 12:56 | 23.31516 | -100.44077 | 36224 ft | 452 kts | 304° |
| 2026-04-20 12:56 | 23.35694 | -100.49202 | 36213 ft | 453 kts | 304° |
| 2026-04-20 12:57 | 23.39880 | -100.54343 | 36234 ft | 454 kts | 304° |
| 2026-04-20 12:57 | 23.44039 | -100.59455 | 36224 ft | 453 kts | 304° |
| 2026-04-20 12:58 | 23.48222 | -100.64599 | 36216 ft | 452 kts | 304° |
| 2026-04-20 12:58 | 23.52339 | -100.69666 | 36215 ft | 451 kts | 304° |
| 2026-04-20 12:59 | 23.56504 | -100.74794 | 36207 ft | 451 kts | 304° |
| 2026-04-20 12:59 | 23.60626 | -100.79878 | 36203 ft | 450 kts | 304° |
| 2026-04-20 13:00 | 23.64718 | -100.84931 | 36233 ft | 451 kts | 304° |
| 2026-04-20 13:00 | 23.66802 | -100.87507 | 36443 ft | 454 kts | 304° |
| 2026-04-20 13:00 | 23.68832 | -100.90019 | 36811 ft | 453 kts | 304° |
| 2026-04-20 13:00 | 23.70909 | -100.92588 | 37257 ft | 449 kts | 305° |
| 2026-04-20 13:01 | 23.72971 | -100.95134 | 37687 ft | 447 kts | 305° |
| 2026-04-20 13:01 | 23.75024 | -100.97674 | 38048 ft | 446 kts | 305° |
| 2026-04-20 13:01 | 23.77079 | -101.00220 | 38142 ft | 449 kts | 305° |
| 2026-04-20 13:02 | 23.81151 | -101.05274 | 38190 ft | 448 kts | 305° |
| 2026-04-20 13:02 | 23.85252 | -101.10361 | 38201 ft | 444 kts | 304° |
| 2026-04-20 13:03 | 23.89321 | -101.15415 | 38201 ft | 442 kts | 304° |
| 2026-04-20 13:03 | 23.93375 | -101.20459 | 38198 ft | 441 kts | 304° |
| 2026-04-20 13:04 | 23.97347 | -101.25405 | 38220 ft | 441 kts | 304° |
| 2026-04-20 13:04 | 24.01405 | -101.30464 | 38207 ft | 443 kts | 305° |
| 2026-04-20 13:05 | 24.05487 | -101.35557 | 38200 ft | 445 kts | 305° |
| 2026-04-20 13:05 | 24.09580 | -101.40670 | 38200 ft | 447 kts | 305° |
| 2026-04-20 13:06 | 24.13608 | -101.45704 | 38189 ft | 449 kts | 305° |
| 2026-04-20 13:06 | 24.17619 | -101.50950 | 38192 ft | 447 kts | 301° |
| 2026-04-20 13:07 | 24.21376 | -101.56374 | 38189 ft | 447 kts | 301° |
| 2026-04-20 13:07 | 24.25121 | -101.61834 | 38182 ft | 448 kts | 301° |
| 2026-04-20 13:08 | 24.28876 | -101.67293 | 38194 ft | 448 kts | 301° |
| 2026-04-20 13:08 | 24.32634 | -101.72742 | 38177 ft | 448 kts | 301° |
| 2026-04-20 13:09 | 24.36394 | -101.78192 | 38178 ft | 448 kts | 301° |
| 2026-04-20 13:09 | 24.40121 | -101.83602 | 38176 ft | 447 kts | 301° |
| 2026-04-20 13:10 | 24.43871 | -101.89051 | 38175 ft | 447 kts | 301° |
| 2026-04-20 13:10 | 24.47612 | -101.94494 | 38165 ft | 446 kts | 301° |
| 2026-04-20 13:11 | 24.51354 | -101.99944 | 38162 ft | 446 kts | 301° |
| 2026-04-20 13:11 | 24.55088 | -102.05392 | 38164 ft | 447 kts | 302° |
| 2026-04-20 13:12 | 24.58826 | -102.10849 | 38153 ft | 447 kts | 302° |
| 2026-04-20 13:12 | 24.62572 | -102.16321 | 38161 ft | 447 kts | 302° |
| 2026-04-20 13:13 | 24.66254 | -102.21710 | 38167 ft | 447 kts | 302° |
| 2026-04-20 13:13 | 24.69934 | -102.27097 | 38149 ft | 449 kts | 302° |
| 2026-04-20 13:14 | 24.73636 | -102.32527 | 38152 ft | 449 kts | 302° |
| 2026-04-20 13:14 | 24.77332 | -102.37953 | 38126 ft | 450 kts | 302° |
| 2026-04-20 13:15 | 24.81080 | -102.43461 | 38159 ft | 449 kts | 302° |
| 2026-04-20 13:15 | 24.84799 | -102.48931 | 38127 ft | 448 kts | 302° |
| 2026-04-20 13:16 | 24.88527 | -102.54421 | 38133 ft | 446 kts | 302° |
| 2026-04-20 13:16 | 24.92238 | -102.59895 | 38114 ft | 445 kts | 302° |
| 2026-04-20 13:17 | 24.95931 | -102.65346 | 38104 ft | 443 kts | 302° |
| 2026-04-20 13:17 | 24.99620 | -102.70800 | 38106 ft | 443 kts | 302° |
| 2026-04-20 13:18 | 25.03295 | -102.76238 | 38129 ft | 442 kts | 302° |
| 2026-04-20 13:18 | 25.06973 | -102.81687 | 38111 ft | 442 kts | 302° |
| 2026-04-20 13:19 | 25.10646 | -102.87135 | 38120 ft | 443 kts | 302° |
| 2026-04-20 13:19 | 25.14255 | -102.92494 | 38122 ft | 443 kts | 302° |
| 2026-04-20 13:20 | 25.17879 | -102.97881 | 38129 ft | 442 kts | 302° |
| 2026-04-20 13:20 | 25.21506 | -103.03278 | 38130 ft | 443 kts | 302° |
| 2026-04-20 13:21 | 25.25178 | -103.08750 | 38137 ft | 443 kts | 302° |
| 2026-04-20 13:21 | 25.28781 | -103.14123 | 38131 ft | 443 kts | 302° |
| 2026-04-20 13:22 | 25.32367 | -103.19477 | 38146 ft | 443 kts | 301° |
| 2026-04-20 13:22 | 25.36030 | -103.24952 | 38179 ft | 442 kts | 301° |
| 2026-04-20 13:23 | 25.39681 | -103.30417 | 38174 ft | 442 kts | 301° |
| 2026-04-20 13:23 | 25.43331 | -103.35886 | 38176 ft | 441 kts | 301° |
| 2026-04-20 13:24 | 25.46303 | -103.40345 | 38199 ft | 441 kts | 301° |
| 2026-04-20 13:24 | 25.50547 | -103.46717 | 38203 ft | 442 kts | 301° |
| 2026-04-20 13:25 | 25.54193 | -103.52201 | 38181 ft | 442 kts | 301° |
| 2026-04-20 13:25 | 25.57244 | -103.56793 | 38183 ft | 441 kts | 301° |
| 2026-04-20 13:26 | 25.60857 | -103.62237 | 38163 ft | 440 kts | 301° |
| 2026-04-20 13:26 | 25.64482 | -103.67705 | 38171 ft | 440 kts | 301° |
| 2026-04-20 13:27 | 25.68063 | -103.73118 | 38152 ft | 441 kts | 301° |
| 2026-04-20 13:27 | 25.71696 | -103.78608 | 38140 ft | 442 kts | 301° |
| 2026-04-20 13:28 | 25.75334 | -103.84116 | 38132 ft | 442 kts | 301° |
| 2026-04-20 13:28 | 25.78967 | -103.89622 | 38137 ft | 442 kts | 301° |
| 2026-04-20 13:29 | 25.82577 | -103.95101 | 38141 ft | 441 kts | 301° |
| 2026-04-20 13:29 | 25.86199 | -104.00602 | 38143 ft | 441 kts | 301° |
| 2026-04-20 13:30 | 25.89821 | -104.06113 | 38146 ft | 441 kts | 301° |
| 2026-04-20 13:30 | 25.93436 | -104.11618 | 38156 ft | 441 kts | 301° |
| 2026-04-20 13:31 | 25.97054 | -104.17135 | 38150 ft | 441 kts | 301° |
| 2026-04-20 13:31 | 26.00645 | -104.22616 | 38145 ft | 441 kts | 300° |
| 2026-04-20 13:32 | 26.04213 | -104.28071 | 38149 ft | 442 kts | 300° |
| 2026-04-20 13:32 | 26.07828 | -104.33602 | 38144 ft | 442 kts | 300° |
| 2026-04-20 13:33 | 26.11444 | -104.39140 | 38141 ft | 442 kts | 300° |
| 2026-04-20 13:33 | 26.15059 | -104.44686 | 38155 ft | 443 kts | 301° |
| 2026-04-20 13:34 | 26.18657 | -104.50212 | 38147 ft | 443 kts | 301° |
| 2026-04-20 13:34 | 26.22281 | -104.55783 | 38150 ft | 444 kts | 301° |
| 2026-04-20 13:35 | 26.25900 | -104.61354 | 38150 ft | 444 kts | 300° |
| 2026-04-20 13:35 | 26.29514 | -104.66925 | 38146 ft | 444 kts | 300° |
| 2026-04-20 13:36 | 26.33129 | -104.72503 | 38149 ft | 444 kts | 300° |
| 2026-04-20 13:36 | 26.36739 | -104.78081 | 38149 ft | 444 kts | 300° |
| 2026-04-20 13:37 | 26.40350 | -104.83666 | 38168 ft | 444 kts | 301° |
| 2026-04-20 13:37 | 26.43939 | -104.89225 | 38157 ft | 444 kts | 300° |
| 2026-04-20 13:38 | 26.47550 | -104.94825 | 38154 ft | 444 kts | 300° |
| 2026-04-20 13:38 | 26.51116 | -105.00362 | 38149 ft | 444 kts | 300° |
| 2026-04-20 13:39 | 26.54722 | -105.05966 | 38153 ft | 444 kts | 300° |
| 2026-04-20 13:39 | 26.58324 | -105.11573 | 38135 ft | 444 kts | 300° |
| 2026-04-20 13:40 | 26.61924 | -105.17184 | 38136 ft | 444 kts | 300° |
| 2026-04-20 13:40 | 26.65522 | -105.22798 | 38145 ft | 444 kts | 300° |
| 2026-04-20 13:41 | 26.69122 | -105.28424 | 38137 ft | 444 kts | 300° |
| 2026-04-20 13:41 | 26.72703 | -105.34024 | 38136 ft | 445 kts | 300° |
| 2026-04-20 13:42 | 26.76303 | -105.39662 | 38125 ft | 445 kts | 300° |
| 2026-04-20 13:42 | 26.81659 | -105.48064 | 38125 ft | 445 kts | 300° |
| 2026-04-20 13:43 | 26.85250 | -105.53707 | 38125 ft | 445 kts | 300° |
| 2026-04-20 13:43 | 26.88841 | -105.59354 | 38123 ft | 445 kts | 300° |
| 2026-04-20 13:44 | 26.92407 | -105.64971 | 38130 ft | 445 kts | 300° |
| 2026-04-20 13:44 | 26.95990 | -105.70621 | 38118 ft | 444 kts | 300° |
| 2026-04-20 13:45 | 26.99563 | -105.76264 | 38116 ft | 442 kts | 300° |
| 2026-04-20 13:45 | 27.03067 | -105.81807 | 38132 ft | 440 kts | 300° |
| 2026-04-20 13:46 | 27.06570 | -105.87350 | 38121 ft | 440 kts | 300° |
| 2026-04-20 13:46 | 27.10117 | -105.92966 | 38117 ft | 441 kts | 300° |
| 2026-04-20 13:47 | 27.13643 | -105.98566 | 38121 ft | 442 kts | 300° |
| 2026-04-20 13:47 | 27.17201 | -106.04222 | 38119 ft | 444 kts | 300° |
| 2026-04-20 13:48 | 27.20772 | -106.09905 | 38112 ft | 445 kts | 300° |
| 2026-04-20 13:48 | 27.24341 | -106.15588 | 38115 ft | 446 kts | 300° |
| 2026-04-20 13:49 | 27.27920 | -106.21297 | 38124 ft | 447 kts | 300° |
| 2026-04-20 13:49 | 27.31498 | -106.27012 | 38122 ft | 447 kts | 300° |
| 2026-04-20 13:50 | 27.35076 | -106.32733 | 38106 ft | 446 kts | 300° |
| 2026-04-20 13:50 | 27.38620 | -106.38408 | 38118 ft | 445 kts | 300° |
| 2026-04-20 13:51 | 27.42203 | -106.44152 | 38132 ft | 446 kts | 300° |
| 2026-04-20 13:51 | 27.45684 | -106.49743 | 38135 ft | 444 kts | 299° |
| 2026-04-20 13:52 | 27.49225 | -106.55433 | 38103 ft | 443 kts | 299° |
| 2026-04-20 13:52 | 27.52720 | -106.61056 | 38123 ft | 445 kts | 299° |
| 2026-04-20 13:53 | 27.56267 | -106.66778 | 38140 ft | 446 kts | 299° |
| 2026-04-20 13:53 | 27.59836 | -106.72539 | 38127 ft | 448 kts | 300° |
| 2026-04-20 13:54 | 27.63400 | -106.78296 | 38163 ft | 448 kts | 299° |
| 2026-04-20 13:54 | 27.66947 | -106.84035 | 38133 ft | 448 kts | 299° |
| 2026-04-20 13:55 | 27.70516 | -106.89816 | 38123 ft | 449 kts | 299° |
| 2026-04-20 13:55 | 27.74082 | -106.95602 | 38134 ft | 449 kts | 299° |
| 2026-04-20 13:56 | 27.77603 | -107.01321 | 38140 ft | 449 kts | 299° |
| 2026-04-20 13:56 | 27.81162 | -107.07112 | 38139 ft | 448 kts | 299° |
| 2026-04-20 13:57 | 27.84715 | -107.12897 | 38133 ft | 447 kts | 299° |
| 2026-04-20 13:57 | 27.88254 | -107.18668 | 38146 ft | 446 kts | 299° |
| 2026-04-20 13:58 | 27.91781 | -107.24430 | 38142 ft | 446 kts | 299° |
| 2026-04-20 13:58 | 27.95242 | -107.30090 | 38149 ft | 446 kts | 299° |
| 2026-04-20 13:59 | 27.98774 | -107.35875 | 38141 ft | 446 kts | 299° |
| 2026-04-20 13:59 | 28.02260 | -107.41591 | 38150 ft | 447 kts | 299° |
| 2026-04-20 14:00 | 28.05789 | -107.47388 | 38148 ft | 447 kts | 299° |
| 2026-04-20 14:00 | 28.09278 | -107.53122 | 38131 ft | 447 kts | 299° |
| 2026-04-20 14:01 | 28.12690 | -107.58740 | 38146 ft | 447 kts | 299° |
| 2026-04-20 14:01 | 28.16225 | -107.64568 | 38133 ft | 448 kts | 299° |
| 2026-04-20 14:02 | 28.19760 | -107.70401 | 38140 ft | 449 kts | 299° |
| 2026-04-20 14:02 | 28.23296 | -107.76244 | 38142 ft | 449 kts | 299° |
| 2026-04-20 14:03 | 28.26823 | -107.82079 | 38133 ft | 448 kts | 299° |
| 2026-04-20 14:03 | 28.30341 | -107.87908 | 38125 ft | 447 kts | 299° |
| 2026-04-20 14:04 | 28.33843 | -107.93723 | 38146 ft | 445 kts | 299° |
| 2026-04-20 14:04 | 28.37341 | -107.99536 | 38133 ft | 445 kts | 299° |
| 2026-04-20 14:05 | 28.40763 | -108.05234 | 38128 ft | 446 kts | 299° |
| 2026-04-20 14:05 | 28.44260 | -108.11061 | 38126 ft | 447 kts | 299° |
| 2026-04-20 14:06 | 28.47764 | -108.16909 | 38112 ft | 448 kts | 299° |
| 2026-04-20 14:06 | 28.51266 | -108.22762 | 38108 ft | 448 kts | 299° |
| 2026-04-20 14:07 | 28.54765 | -108.28617 | 38124 ft | 447 kts | 299° |
| 2026-04-20 14:07 | 28.58266 | -108.34480 | 38109 ft | 448 kts | 299° |
| 2026-04-20 14:08 | 28.61766 | -108.40357 | 38109 ft | 448 kts | 299° |
| 2026-04-20 14:08 | 28.65217 | -108.46155 | 38124 ft | 448 kts | 299° |
| 2026-04-20 14:09 | 28.68701 | -108.52021 | 38129 ft | 446 kts | 299° |
| 2026-04-20 14:09 | 28.72171 | -108.57884 | 38100 ft | 446 kts | 299° |
| 2026-04-20 14:10 | 28.75632 | -108.63746 | 38095 ft | 446 kts | 298° |
| 2026-04-20 14:10 | 28.79093 | -108.69614 | 38153 ft | 445 kts | 298° |
| 2026-04-20 14:11 | 28.82485 | -108.75377 | 38102 ft | 444 kts | 298° |
| 2026-04-20 14:11 | 28.85928 | -108.81234 | 38112 ft | 445 kts | 298° |
| 2026-04-20 14:12 | 28.88804 | -108.86124 | 38084 ft | 447 kts | 298° |
| 2026-04-20 14:12 | 28.92263 | -108.92017 | 38079 ft | 447 kts | 298° |
| 2026-04-20 14:13 | 28.95724 | -108.97924 | 38075 ft | 447 kts | 298° |
| 2026-04-20 14:13 | 28.99181 | -109.03837 | 38065 ft | 447 kts | 298° |
| 2026-04-20 14:14 | 29.02617 | -109.09721 | 38069 ft | 448 kts | 298° |
| 2026-04-20 14:14 | 29.06074 | -109.15646 | 38046 ft | 448 kts | 298° |
| 2026-04-20 14:15 | 29.09485 | -109.21500 | 38042 ft | 447 kts | 298° |
| 2026-04-20 14:15 | 29.12922 | -109.27407 | 38033 ft | 445 kts | 298° |
| 2026-04-20 14:16 | 29.16344 | -109.33300 | 38029 ft | 444 kts | 298° |
| 2026-04-20 14:16 | 29.19759 | -109.39188 | 38034 ft | 444 kts | 298° |
| 2026-04-20 14:17 | 29.23174 | -109.45083 | 38039 ft | 444 kts | 298° |
| 2026-04-20 14:17 | 29.26591 | -109.50990 | 38029 ft | 445 kts | 298° |
| 2026-04-20 14:18 | 29.29934 | -109.56779 | 38027 ft | 445 kts | 298° |
| 2026-04-20 14:18 | 29.33326 | -109.62660 | 38021 ft | 445 kts | 298° |
| 2026-04-20 14:19 | 29.36735 | -109.68578 | 38020 ft | 444 kts | 298° |
| 2026-04-20 14:19 | 29.40091 | -109.74413 | 38031 ft | 444 kts | 298° |
| 2026-04-20 14:20 | 29.43448 | -109.80259 | 38024 ft | 444 kts | 298° |
| 2026-04-20 14:20 | 29.46848 | -109.86190 | 38021 ft | 445 kts | 298° |
| 2026-04-20 14:21 | 29.50249 | -109.92127 | 38025 ft | 445 kts | 298° |
| 2026-04-20 14:21 | 29.53646 | -109.98067 | 38026 ft | 445 kts | 298° |
| 2026-04-20 14:22 | 29.57030 | -110.03991 | 38016 ft | 445 kts | 298° |
| 2026-04-20 14:22 | 29.60429 | -110.09954 | 38012 ft | 445 kts | 298° |
| 2026-04-20 14:23 | 29.63801 | -110.15877 | 38008 ft | 445 kts | 298° |
| 2026-04-20 14:23 | 29.67146 | -110.21761 | 38018 ft | 445 kts | 298° |
| 2026-04-20 14:24 | 29.70531 | -110.27722 | 38011 ft | 445 kts | 298° |
| 2026-04-20 14:24 | 29.73910 | -110.33683 | 38012 ft | 445 kts | 298° |
| 2026-04-20 14:25 | 29.77288 | -110.39651 | 38001 ft | 445 kts | 298° |
| 2026-04-20 14:25 | 29.80662 | -110.45621 | 38002 ft | 445 kts | 298° |
| 2026-04-20 14:26 | 29.84012 | -110.51556 | 38003 ft | 444 kts | 298° |
| 2026-04-20 14:26 | 29.87377 | -110.57529 | 38019 ft | 444 kts | 298° |
| 2026-04-20 14:27 | 29.90743 | -110.63511 | 37999 ft | 444 kts | 298° |
| 2026-04-20 14:27 | 29.94100 | -110.69485 | 37995 ft | 444 kts | 298° |
| 2026-04-20 14:28 | 29.97451 | -110.75458 | 38007 ft | 443 kts | 298° |
| 2026-04-20 14:28 | 30.00782 | -110.81404 | 38011 ft | 443 kts | 298° |
| 2026-04-20 14:29 | 30.04130 | -110.87389 | 37975 ft | 443 kts | 298° |
| 2026-04-20 14:29 | 30.07473 | -110.93375 | 37995 ft | 443 kts | 298° |
| 2026-04-20 14:30 | 30.10813 | -110.99363 | 37985 ft | 443 kts | 298° |
| 2026-04-20 14:30 | 30.14158 | -111.05346 | 37977 ft | 443 kts | 299° |
| 2026-04-20 14:31 | 30.17518 | -111.11335 | 37980 ft | 443 kts | 299° |
| 2026-04-20 14:31 | 30.20869 | -111.17316 | 37983 ft | 443 kts | 299° |
| 2026-04-20 14:32 | 30.24148 | -111.23181 | 37974 ft | 442 kts | 299° |
| 2026-04-20 14:32 | 30.27487 | -111.29165 | 37977 ft | 442 kts | 299° |
| 2026-04-20 14:33 | 30.30818 | -111.35146 | 37982 ft | 442 kts | 299° |
| 2026-04-20 14:33 | 30.34129 | -111.41099 | 37981 ft | 442 kts | 299° |
| 2026-04-20 14:34 | 30.37412 | -111.47009 | 37974 ft | 442 kts | 299° |
| 2026-04-20 14:34 | 30.40737 | -111.53005 | 37975 ft | 442 kts | 299° |
| 2026-04-20 14:35 | 30.44017 | -111.58928 | 37975 ft | 442 kts | 299° |
| 2026-04-20 14:35 | 30.47339 | -111.64937 | 37973 ft | 442 kts | 299° |
| 2026-04-20 14:36 | 30.50639 | -111.70914 | 37979 ft | 443 kts | 299° |
| 2026-04-20 14:36 | 30.53955 | -111.76929 | 37975 ft | 443 kts | 299° |
| 2026-04-20 14:37 | 30.57280 | -111.82971 | 37976 ft | 443 kts | 299° |
| 2026-04-20 14:37 | 30.60587 | -111.88988 | 37969 ft | 442 kts | 299° |
| 2026-04-20 14:38 | 30.63889 | -111.95004 | 37969 ft | 441 kts | 299° |
| 2026-04-20 14:38 | 30.67161 | -112.00976 | 37969 ft | 440 kts | 299° |
| 2026-04-20 14:39 | 30.70450 | -112.06988 | 37977 ft | 441 kts | 299° |
| 2026-04-20 14:39 | 30.73734 | -112.13001 | 37965 ft | 441 kts | 299° |
| 2026-04-20 14:40 | 30.77013 | -112.19012 | 37977 ft | 440 kts | 299° |
| 2026-04-20 14:40 | 30.80288 | -112.25024 | 37969 ft | 439 kts | 299° |
| 2026-04-20 14:41 | 30.83530 | -112.30989 | 37977 ft | 438 kts | 299° |
| 2026-04-20 14:41 | 30.86787 | -112.36988 | 37974 ft | 438 kts | 299° |
| 2026-04-20 14:42 | 30.90044 | -112.42996 | 37971 ft | 439 kts | 299° |
| 2026-04-20 14:42 | 30.93297 | -112.49005 | 37978 ft | 438 kts | 299° |
| 2026-04-20 14:43 | 30.96546 | -112.55018 | 37980 ft | 437 kts | 299° |
| 2026-04-20 14:43 | 30.99787 | -112.61023 | 37976 ft | 437 kts | 299° |
| 2026-04-20 14:44 | 31.02977 | -112.66945 | 37979 ft | 437 kts | 299° |
| 2026-04-20 14:44 | 31.06183 | -112.72904 | 37980 ft | 436 kts | 299° |
| 2026-04-20 14:45 | 31.09410 | -112.78911 | 37980 ft | 437 kts | 299° |
| 2026-04-20 14:45 | 31.12628 | -112.84912 | 37982 ft | 436 kts | 299° |
| 2026-04-20 14:46 | 31.15803 | -112.90841 | 37988 ft | 435 kts | 299° |
| 2026-04-20 14:46 | 31.19013 | -112.96846 | 37981 ft | 435 kts | 299° |
| 2026-04-20 14:47 | 31.22214 | -113.02843 | 37985 ft | 435 kts | 299° |
| 2026-04-20 14:48 | 31.26987 | -113.11800 | 37986 ft | 434 kts | 299° |
| 2026-04-20 14:48 | 31.30175 | -113.17797 | 37985 ft | 434 kts | 299° |
| 2026-04-20 14:49 | 31.33362 | -113.23800 | 37992 ft | 433 kts | 299° |
| 2026-04-20 14:49 | 31.36538 | -113.29789 | 37992 ft | 433 kts | 299° |
| 2026-04-20 14:50 | 31.39804 | -113.35717 | 37992 ft | 433 kts | 301° |
| 2026-04-20 14:50 | 31.43122 | -113.41563 | 37987 ft | 433 kts | 301° |
| 2026-04-20 14:51 | 31.46447 | -113.47443 | 37985 ft | 433 kts | 301° |
| 2026-04-20 14:51 | 31.49761 | -113.53339 | 37975 ft | 433 kts | 301° |
| 2026-04-20 14:52 | 31.53066 | -113.59243 | 37976 ft | 433 kts | 301° |
| 2026-04-20 14:52 | 31.56374 | -113.65163 | 37976 ft | 433 kts | 301° |
| 2026-04-20 14:53 | 31.59672 | -113.71075 | 37972 ft | 433 kts | 301° |
| 2026-04-20 14:53 | 31.62973 | -113.76999 | 37961 ft | 433 kts | 301° |
| 2026-04-20 14:54 | 31.66230 | -113.82856 | 37976 ft | 433 kts | 301° |
| 2026-04-20 14:54 | 31.69529 | -113.88796 | 37966 ft | 434 kts | 301° |
| 2026-04-20 14:55 | 31.72784 | -113.94663 | 37971 ft | 434 kts | 301° |
| 2026-04-20 14:55 | 31.76078 | -114.00612 | 37965 ft | 434 kts | 301° |
| 2026-04-20 14:56 | 31.79368 | -114.06563 | 37972 ft | 434 kts | 301° |
| 2026-04-20 14:56 | 31.82641 | -114.12492 | 37984 ft | 434 kts | 301° |
| 2026-04-20 14:57 | 31.85931 | -114.18462 | 37967 ft | 435 kts | 301° |
| 2026-04-20 14:57 | 31.89221 | -114.24441 | 37964 ft | 435 kts | 301° |
| 2026-04-20 14:58 | 31.92509 | -114.30426 | 37963 ft | 435 kts | 301° |
| 2026-04-20 14:58 | 31.95757 | -114.36347 | 37962 ft | 436 kts | 301° |
| 2026-04-20 14:59 | 31.99025 | -114.42314 | 37951 ft | 436 kts | 301° |
| 2026-04-20 14:59 | 32.02309 | -114.48319 | 37968 ft | 436 kts | 301° |
| 2026-04-20 15:00 | 32.05579 | -114.54309 | 37952 ft | 437 kts | 301° |
| 2026-04-20 15:00 | 32.08828 | -114.60267 | 37958 ft | 437 kts | 301° |
| 2026-04-20 15:01 | 32.11561 | -114.65288 | 37950 ft | 437 kts | 301° |
| 2026-04-20 15:01 | 32.14800 | -114.71249 | 37951 ft | 437 kts | 301° |
| 2026-04-20 15:02 | 32.18080 | -114.77291 | 37948 ft | 437 kts | 301° |
| 2026-04-20 15:02 | 32.21357 | -114.83342 | 37950 ft | 437 kts | 301° |
| 2026-04-20 15:03 | 32.24636 | -114.89402 | 37950 ft | 438 kts | 301° |
| 2026-04-20 15:03 | 32.27916 | -114.95477 | 37951 ft | 438 kts | 301° |
| 2026-04-20 15:04 | 32.31176 | -115.01522 | 37947 ft | 438 kts | 301° |
| 2026-04-20 15:04 | 32.34370 | -115.07455 | 37943 ft | 439 kts | 301° |
| 2026-04-20 15:05 | 32.37690 | -115.13621 | 37970 ft | 439 kts | 301° |
| 2026-04-20 15:05 | 32.40937 | -115.19659 | 37957 ft | 440 kts | 301° |
| 2026-04-20 15:06 | 32.44223 | -115.25781 | 37962 ft | 441 kts | 301° |
| 2026-04-20 15:06 | 32.47467 | -115.31836 | 37941 ft | 441 kts | 301° |
| 2026-04-20 15:07 | 32.50738 | -115.37949 | 37940 ft | 442 kts | 301° |
| 2026-04-20 15:07 | 32.54024 | -115.44102 | 37943 ft | 442 kts | 301° |
| 2026-04-20 15:08 | 32.57312 | -115.50271 | 37943 ft | 443 kts | 301° |
| 2026-04-20 15:08 | 32.60520 | -115.56298 | 37956 ft | 443 kts | 301° |
| 2026-04-20 15:09 | 32.63794 | -115.62459 | 37956 ft | 444 kts | 301° |
| 2026-04-20 15:09 | 32.67078 | -115.68661 | 37965 ft | 444 kts | 301° |
| 2026-04-20 15:10 | 32.70288 | -115.74777 | 37944 ft | 437 kts | 301° |
| 2026-04-20 15:10 | 32.73477 | -115.80862 | 37963 ft | 433 kts | 301° |
| 2026-04-20 15:11 | 32.76663 | -115.86948 | 37972 ft | 434 kts | 301° |
| 2026-04-20 15:11 | 32.79781 | -115.92910 | 37977 ft | 435 kts | 301° |
| 2026-04-20 15:12 | 32.82932 | -115.99066 | 37967 ft | 436 kts | 300° |
| 2026-04-20 15:12 | 32.85954 | -116.05122 | 37980 ft | 436 kts | 300° |
| 2026-04-20 15:12 | 32.87479 | -116.08179 | 37544 ft | 422 kts | 300° |
| 2026-04-20 15:13 | 32.88957 | -116.11138 | 36707 ft | 410 kts | 300° |
| 2026-04-20 15:13 | 32.90406 | -116.14037 | 35590 ft | 406 kts | 300° |
| 2026-04-20 15:13 | 32.91849 | -116.16924 | 34406 ft | 405 kts | 300° |
| 2026-04-20 15:13 | 32.93287 | -116.19804 | 33163 ft | 404 kts | 300° |
| 2026-04-20 15:14 | 32.94720 | -116.22675 | 31966 ft | 401 kts | 300° |
| 2026-04-20 15:14 | 32.96093 | -116.25426 | 31371 ft | 386 kts | 300° |
| 2026-04-20 15:14 | 32.97457 | -116.28162 | 31427 ft | 388 kts | 300° |
| 2026-04-20 15:15 | 33.00217 | -116.33704 | 30753 ft | 388 kts | 300° |
| 2026-04-20 15:15 | 33.01582 | -116.36448 | 29833 ft | 382 kts | 300° |
| 2026-04-20 15:15 | 33.02883 | -116.39065 | 28752 ft | 378 kts | 299° |
| 2026-04-20 15:15 | 33.04208 | -116.41733 | 27627 ft | 375 kts | 299° |
| 2026-04-20 15:16 | 33.05454 | -116.44426 | 26860 ft | 362 kts | 295° |
| 2026-04-20 15:16 | 33.06474 | -116.47084 | 26047 ft | 356 kts | 292° |
| 2026-04-20 15:16 | 33.07438 | -116.49778 | 25170 ft | 358 kts | 291° |
| 2026-04-20 15:16 | 33.08454 | -116.52624 | 24527 ft | 366 kts | 292° |
| 2026-04-20 15:17 | 33.09464 | -116.55396 | 24302 ft | 359 kts | 292° |
| 2026-04-20 15:17 | 33.10467 | -116.58108 | 24125 ft | 359 kts | 292° |
| 2026-04-20 15:17 | 33.11459 | -116.60770 | 24027 ft | 360 kts | 292° |
| 2026-04-20 15:17 | 33.12444 | -116.63407 | 24019 ft | 356 kts | 292° |
| 2026-04-20 15:18 | 33.13404 | -116.66114 | 23994 ft | 353 kts | 287° |
| 2026-04-20 15:18 | 33.13993 | -116.68977 | 23530 ft | 358 kts | 279° |
| 2026-04-20 15:18 | 33.14400 | -116.71912 | 23057 ft | 357 kts | 278° |
| 2026-04-20 15:18 | 33.14767 | -116.74768 | 22601 ft | 356 kts | 277° |
| 2026-04-20 15:19 | 33.15142 | -116.77646 | 22170 ft | 354 kts | 278° |
| 2026-04-20 15:19 | 33.15534 | -116.80545 | 21740 ft | 352 kts | 278° |
| 2026-04-20 15:19 | 33.15934 | -116.83420 | 21321 ft | 351 kts | 278° |
| 2026-04-20 15:19 | 33.16341 | -116.86279 | 20892 ft | 349 kts | 278° |
| 2026-04-20 15:20 | 33.16753 | -116.89137 | 20477 ft | 348 kts | 278° |
| 2026-04-20 15:20 | 33.17165 | -116.91981 | 20057 ft | 347 kts | 278° |
| 2026-04-20 15:20 | 33.17576 | -116.94819 | 19639 ft | 346 kts | 278° |
| 2026-04-20 15:20 | 33.17986 | -116.97642 | 19222 ft | 345 kts | 278° |
| 2026-04-20 15:21 | 33.18385 | -117.00396 | 18824 ft | 345 kts | 278° |
| 2026-04-20 15:21 | 33.18794 | -117.03221 | 18398 ft | 345 kts | 278° |
| 2026-04-20 15:21 | 33.19200 | -117.06038 | 17931 ft | 345 kts | 278° |
| 2026-04-20 15:21 | 33.19603 | -117.08828 | 17492 ft | 344 kts | 278° |
| 2026-04-20 15:22 | 33.19998 | -117.11567 | 17078 ft | 343 kts | 278° |
| 2026-04-20 15:22 | 33.20394 | -117.14326 | 16662 ft | 341 kts | 278° |
| 2026-04-20 15:22 | 33.20795 | -117.17113 | 16249 ft | 340 kts | 278° |
| 2026-04-20 15:22 | 33.21193 | -117.19893 | 15872 ft | 339 kts | 277° |
| 2026-04-20 15:23 | 33.21590 | -117.22666 | 15460 ft | 338 kts | 277° |
| 2026-04-20 15:23 | 33.21984 | -117.25428 | 15054 ft | 336 kts | 277° |
| 2026-04-20 15:23 | 33.22377 | -117.28185 | 14605 ft | 337 kts | 277° |
| 2026-04-20 15:23 | 33.22771 | -117.30954 | 14169 ft | 337 kts | 277° |
| 2026-04-20 15:24 | 33.23168 | -117.33654 | 13953 ft | 330 kts | 278° |
| 2026-04-20 15:24 | 33.23578 | -117.36274 | 13803 ft | 321 kts | 278° |
| 2026-04-20 15:24 | 33.23988 | -117.38866 | 13658 ft | 314 kts | 278° |
| 2026-04-20 15:24 | 33.24391 | -117.41430 | 13541 ft | 314 kts | 278° |
| 2026-04-20 15:25 | 33.24793 | -117.44003 | 13422 ft | 315 kts | 278° |
| 2026-04-20 15:25 | 33.25194 | -117.46578 | 13297 ft | 315 kts | 278° |
| 2026-04-20 15:25 | 33.25592 | -117.49147 | 13187 ft | 315 kts | 278° |
| 2026-04-20 15:25 | 33.25992 | -117.51729 | 13066 ft | 315 kts | 278° |
| 2026-04-20 15:26 | 33.26630 | -117.54199 | 12869 ft | 311 kts | 296° |
| 2026-04-20 15:26 | 33.27806 | -117.56391 | 12730 ft | 317 kts | 301° |
| 2026-04-20 15:26 | 33.29039 | -117.58604 | 12523 ft | 322 kts | 301° |
| 2026-04-20 15:26 | 33.30224 | -117.60752 | 12320 ft | 321 kts | 301° |
| 2026-04-20 15:27 | 33.31434 | -117.62963 | 12111 ft | 318 kts | 301° |
| 2026-04-20 15:27 | 33.32638 | -117.65177 | 11906 ft | 316 kts | 301° |
| 2026-04-20 15:27 | 33.33831 | -117.67380 | 11715 ft | 314 kts | 300° |
| 2026-04-20 15:27 | 33.35013 | -117.69572 | 11508 ft | 312 kts | 300° |
| 2026-04-20 15:28 | 33.36185 | -117.71750 | 11326 ft | 311 kts | 300° |
| 2026-04-20 15:28 | 33.37351 | -117.73921 | 11126 ft | 309 kts | 300° |
| 2026-04-20 15:28 | 33.38512 | -117.76084 | 10934 ft | 308 kts | 300° |
| 2026-04-20 15:28 | 33.39665 | -117.78235 | 10741 ft | 307 kts | 300° |
| 2026-04-20 15:29 | 33.40812 | -117.80375 | 10554 ft | 306 kts | 301° |
| 2026-04-20 15:29 | 33.41944 | -117.82490 | 10382 ft | 305 kts | 301° |
| 2026-04-20 15:29 | 33.43083 | -117.84618 | 10177 ft | 301 kts | 301° |
| 2026-04-20 15:29 | 33.44121 | -117.86557 | 9999 ft | 295 kts | 300° |
| 2026-04-20 15:30 | 33.45216 | -117.88603 | 9793 ft | 289 kts | 300° |
| 2026-04-20 15:30 | 33.46248 | -117.90534 | 9612 ft | 284 kts | 300° |
| 2026-04-20 15:30 | 33.47346 | -117.92485 | 9422 ft | 281 kts | 309° |
| 2026-04-20 15:30 | 33.48933 | -117.93857 | 9256 ft | 286 kts | 337° |
| 2026-04-20 15:31 | 33.50822 | -117.94665 | 9109 ft | 292 kts | 340° |
| 2026-04-20 15:31 | 33.52745 | -117.95479 | 8922 ft | 294 kts | 339° |
| 2026-04-20 15:31 | 33.54668 | -117.96302 | 8726 ft | 292 kts | 339° |
| 2026-04-20 15:31 | 33.56574 | -117.97124 | 8540 ft | 290 kts | 339° |
| 2026-04-20 15:32 | 33.58401 | -117.97916 | 8366 ft | 288 kts | 339° |
| 2026-04-20 15:32 | 33.60232 | -117.98712 | 8187 ft | 286 kts | 339° |
| 2026-04-20 15:32 | 33.62100 | -117.99524 | 8001 ft | 284 kts | 339° |
| 2026-04-20 15:32 | 33.63984 | -118.00273 | 7773 ft | 285 kts | 342° |
| 2026-04-20 15:33 | 33.65837 | -118.00935 | 7555 ft | 286 kts | 342° |
| 2026-04-20 15:33 | 33.67743 | -118.01617 | 7324 ft | 286 kts | 342° |
| 2026-04-20 15:33 | 33.69656 | -118.02308 | 7108 ft | 286 kts | 342° |
| 2026-04-20 15:33 | 33.71533 | -118.02990 | 7046 ft | 278 kts | 342° |
| 2026-04-20 15:34 | 33.73382 | -118.03664 | 7002 ft | 277 kts | 342° |
| 2026-04-20 15:34 | 33.75232 | -118.04340 | 6981 ft | 276 kts | 342° |
| 2026-04-20 15:34 | 33.77008 | -118.04990 | 6952 ft | 264 kts | 342° |
| 2026-04-20 15:34 | 33.78712 | -118.05628 | 6940 ft | 250 kts | 339° |
| 2026-04-20 15:35 | 33.80346 | -118.06386 | 6612 ft | 252 kts | 336° |
| 2026-04-20 15:35 | 33.81963 | -118.07185 | 6326 ft | 250 kts | 336° |
| 2026-04-20 15:35 | 33.83574 | -118.07974 | 6013 ft | 248 kts | 337° |
| 2026-04-20 15:35 | 33.85130 | -118.08727 | 5668 ft | 234 kts | 337° |
| 2026-04-20 15:36 | 33.86586 | -118.09429 | 5395 ft | 228 kts | 338° |
| 2026-04-20 15:36 | 33.88077 | -118.10146 | 5192 ft | 239 kts | 338° |
| 2026-04-20 15:36 | 33.89605 | -118.10786 | 4935 ft | 237 kts | 351° |
| 2026-04-20 15:36 | 33.91212 | -118.10906 | 4775 ft | 228 kts | 359° |
| 2026-04-20 15:37 | 33.92755 | -118.11030 | 4465 ft | 212 kts | 343° |
| 2026-04-20 15:37 | 33.93933 | -118.11895 | 4285 ft | 203 kts | 320° |
| 2026-04-20 15:37 | 33.95065 | -118.13004 | 4061 ft | 207 kts | 317° |
| 2026-04-20 15:37 | 33.95796 | -118.14393 | 3798 ft | 196 kts | 281° |
| 2026-04-20 15:38 | 33.95841 | -118.15990 | 3630 ft | 193 kts | 268° |
| 2026-04-20 15:38 | 33.95805 | -118.17622 | 3383 ft | 196 kts | 266° |
| 2026-04-20 15:38 | 33.95686 | -118.19242 | 3129 ft | 193 kts | 263° |
| 2026-04-20 15:38 | 33.95536 | -118.20790 | 2882 ft | 189 kts | 262° |
| 2026-04-20 15:39 | 33.95378 | -118.22334 | 2641 ft | 182 kts | 262° |
| 2026-04-20 15:39 | 33.95225 | -118.23822 | 2409 ft | 175 kts | 262° |
| 2026-04-20 15:39 | 33.95077 | -118.25258 | 2180 ft | 169 kts | 262° |
| 2026-04-20 15:39 | 33.94935 | -118.26640 | 2019 ft | 164 kts | 262° |
| 2026-04-20 15:40 | 33.94796 | -118.27991 | 1817 ft | 158 kts | 262° |
| 2026-04-20 15:40 | 33.94665 | -118.29263 | 1579 ft | 148 kts | 261° |
| 2026-04-20 15:40 | 33.94539 | -118.30478 | 1382 ft | 145 kts | 262° |
| 2026-04-20 15:40 | 33.94415 | -118.31692 | 1203 ft | 147 kts | 262° |
| 2026-04-20 15:41 | 33.94291 | -118.32898 | 1016 ft | 147 kts | 262° |
| 2026-04-20 15:41 | 33.94165 | -118.34115 | 818 ft | 146 kts | 263° |
| 2026-04-20 15:41 | 33.94037 | -118.35328 | 612 ft | 145 kts | 262° |
| 2026-04-20 15:41 | 33.93915 | -118.36535 | 437 ft | 146 kts | 263° |
| 2026-04-20 15:42 | 33.93793 | -118.37750 | 225 ft | 146 kts | 263° |
| 2026-04-20 15:42 | 33.93666 | -118.38956 | 103 ft | 140 kts | 263° |
| 2026-04-20 15:42 | 33.93562 | -118.39972 | 101 ft | 95 kts | 263° |
| 2026-04-20 15:42 | 33.93503 | -118.40546 | 100 ft | 58 kts | 263° |
| 2026-04-20 15:43 | 33.93474 | -118.40895 | 99 ft | 19 kts | 275° |
| 2026-04-20 15:43 | 33.93492 | -118.41015 | 100 ft | 14 kts | 283° |
| 2026-04-20 15:43 | 33.93521 | -118.41125 | 101 ft | 14 kts | 289° |
| 2026-04-20 15:43 | 33.93539 | -118.41197 | 101 ft | 13 kts | 293° |
| 2026-04-20 15:44 | 33.93611 | -118.41255 | 102 ft | 13 kts | 345° |
| 2026-04-20 15:44 | 33.93702 | -118.41272 | 101 ft | 14 kts | 359° |
| 2026-04-20 15:44 | 33.93800 | -118.41250 | 100 ft | 16 kts | 22° |
| 2026-04-20 15:44 | 33.93882 | -118.41168 | 100 ft | 11 kts | 17° |
| 2026-04-20 15:45 | 33.93931 | -118.41171 | 99 ft | 10 kts | 353° |
| 2026-04-20 15:45 | 33.94003 | -118.41175 | 98 ft | 9 kts | 17° |
| 2026-04-20 15:45 | 33.94019 | -118.41108 | 98 ft | 9 kts | 86° |
| 2026-04-20 15:45 | 33.94021 | -118.41080 | 98 ft | 1 kts | 84° |
| 2026-04-20 15:46 | 33.94022 | -118.41074 | 98 ft | 0 kts | 84° |
| 2026-04-20 15:46 | 33.94022 | -118.41070 | 98 ft | 0 kts | 84° |